<?xml version="1.0" encoding="UTF-8" standalone="no" ?>
<gpx xmlns="http://www.topografix.com/GPX/1/1" xmlns:xsi="http://www.w3.org/2001/XMLSchema-instance" xsi:schemaLocation="http://www.topografix.com/GPX/1/1 http://www.topografix.com/GPX/1/1/gpx.xsd" version="1.1" creator="VisuGPX - https://www.visugpx.com">
  <metadata>
    <name>lances de malissard</name>
    <desc><![CDATA[

]]></desc>
  </metadata>
  <trk>
    <name><![CDATA[lances de malissard]]></name>
    <extensions>
      <line xmlns="http://www.topografix.com/GPX/gpx_style/0/2">
        <color>0000FF</color>
        <width>4</width>
      </line>
    </extensions>
    <trkseg>
      <trkpt lat="45.35593" lon="5.91896">
        <ele>1074.4599609375</ele>
        <time>2017-01-27T08:17:03Z</time>
      </trkpt>
      <trkpt lat="45.3559" lon="5.91885">
        <ele>1068.4599609375</ele>
        <time>2017-01-27T08:17:22Z</time>
      </trkpt>
      <trkpt lat="45.35589" lon="5.91872">
        <ele>1072.4599609375</ele>
        <time>2017-01-27T08:17:28Z</time>
      </trkpt>
      <trkpt lat="45.35594" lon="5.91864">
        <ele>1070.4599609375</ele>
        <time>2017-01-27T08:17:35Z</time>
      </trkpt>
      <trkpt lat="45.35589" lon="5.91856">
        <ele>1069.4599609375</ele>
        <time>2017-01-27T08:17:59Z</time>
      </trkpt>
      <trkpt lat="45.35587" lon="5.91846">
        <ele>1069.4599609375</ele>
        <time>2017-01-27T08:18:04Z</time>
      </trkpt>
      <trkpt lat="45.35587" lon="5.91835">
        <ele>1071.4599609375</ele>
        <time>2017-01-27T08:18:10Z</time>
      </trkpt>
      <trkpt lat="45.35589" lon="5.91825">
        <ele>1075.4599609375</ele>
        <time>2017-01-27T08:18:15Z</time>
      </trkpt>
      <trkpt lat="45.35589" lon="5.91814">
        <ele>1075.4599609375</ele>
        <time>2017-01-27T08:18:29Z</time>
      </trkpt>
      <trkpt lat="45.3559" lon="5.91803">
        <ele>1079.4599609375</ele>
        <time>2017-01-27T08:18:37Z</time>
      </trkpt>
      <trkpt lat="45.35591" lon="5.91792">
        <ele>1076.4599609375</ele>
        <time>2017-01-27T08:18:44Z</time>
      </trkpt>
      <trkpt lat="45.35591" lon="5.9178">
        <ele>1077.4599609375</ele>
        <time>2017-01-27T08:18:52Z</time>
      </trkpt>
      <trkpt lat="45.35593" lon="5.9177">
        <ele>1085.4599609375</ele>
        <time>2017-01-27T08:18:59Z</time>
      </trkpt>
      <trkpt lat="45.35591" lon="5.91759">
        <ele>1085.4599609375</ele>
        <time>2017-01-27T08:19:08Z</time>
      </trkpt>
      <trkpt lat="45.35589" lon="5.91747">
        <ele>1088.4599609375</ele>
        <time>2017-01-27T08:19:16Z</time>
      </trkpt>
      <trkpt lat="45.35591" lon="5.91737">
        <ele>1088.4599609375</ele>
        <time>2017-01-27T08:19:22Z</time>
      </trkpt>
      <trkpt lat="45.35595" lon="5.91727">
        <ele>1089.4599609375</ele>
        <time>2017-01-27T08:19:30Z</time>
      </trkpt>
      <trkpt lat="45.35599" lon="5.91717">
        <ele>1093.4599609375</ele>
        <time>2017-01-27T08:19:37Z</time>
      </trkpt>
      <trkpt lat="45.35602" lon="5.91708">
        <ele>1094.4599609375</ele>
        <time>2017-01-27T08:19:45Z</time>
      </trkpt>
      <trkpt lat="45.35606" lon="5.91699">
        <ele>1096.4599609375</ele>
        <time>2017-01-27T08:19:53Z</time>
      </trkpt>
      <trkpt lat="45.35611" lon="5.91691">
        <ele>1099.4599609375</ele>
        <time>2017-01-27T08:20:00Z</time>
      </trkpt>
      <trkpt lat="45.35616" lon="5.91682">
        <ele>1099.4599609375</ele>
        <time>2017-01-27T08:20:07Z</time>
      </trkpt>
      <trkpt lat="45.3562" lon="5.91674">
        <ele>1102.4599609375</ele>
        <time>2017-01-27T08:20:14Z</time>
      </trkpt>
      <trkpt lat="45.35624" lon="5.91664">
        <ele>1103.4599609375</ele>
        <time>2017-01-27T08:20:22Z</time>
      </trkpt>
      <trkpt lat="45.35623" lon="5.91654">
        <ele>1103.4599609375</ele>
        <time>2017-01-27T08:20:32Z</time>
      </trkpt>
      <trkpt lat="45.35621" lon="5.91643">
        <ele>1104.4599609375</ele>
        <time>2017-01-27T08:20:43Z</time>
      </trkpt>
      <trkpt lat="45.35625" lon="5.91633">
        <ele>1105.4599609375</ele>
        <time>2017-01-27T08:20:50Z</time>
      </trkpt>
      <trkpt lat="45.35629" lon="5.91624">
        <ele>1106.4599609375</ele>
        <time>2017-01-27T08:20:58Z</time>
      </trkpt>
      <trkpt lat="45.35634" lon="5.91615">
        <ele>1107.4599609375</ele>
        <time>2017-01-27T08:21:05Z</time>
      </trkpt>
      <trkpt lat="45.35637" lon="5.91606">
        <ele>1110.4599609375</ele>
        <time>2017-01-27T08:21:13Z</time>
      </trkpt>
      <trkpt lat="45.3564" lon="5.91596">
        <ele>1113.4599609375</ele>
        <time>2017-01-27T08:21:20Z</time>
      </trkpt>
      <trkpt lat="45.35644" lon="5.91586">
        <ele>1116.4599609375</ele>
        <time>2017-01-27T08:21:28Z</time>
      </trkpt>
      <trkpt lat="45.35649" lon="5.91578">
        <ele>1118.4599609375</ele>
        <time>2017-01-27T08:21:36Z</time>
      </trkpt>
      <trkpt lat="45.35652" lon="5.91568">
        <ele>1116.4599609375</ele>
        <time>2017-01-27T08:21:46Z</time>
      </trkpt>
      <trkpt lat="45.35657" lon="5.91558">
        <ele>1120.4599609375</ele>
        <time>2017-01-27T08:21:53Z</time>
      </trkpt>
      <trkpt lat="45.35661" lon="5.9155">
        <ele>1121.4599609375</ele>
        <time>2017-01-27T08:22:01Z</time>
      </trkpt>
      <trkpt lat="45.35665" lon="5.91541">
        <ele>1122.4599609375</ele>
        <time>2017-01-27T08:22:08Z</time>
      </trkpt>
      <trkpt lat="45.35669" lon="5.91531">
        <ele>1125.4599609375</ele>
        <time>2017-01-27T08:22:16Z</time>
      </trkpt>
      <trkpt lat="45.35675" lon="5.91523">
        <ele>1126.4599609375</ele>
        <time>2017-01-27T08:22:24Z</time>
      </trkpt>
      <trkpt lat="45.3568" lon="5.91516">
        <ele>1127.4599609375</ele>
        <time>2017-01-27T08:22:32Z</time>
      </trkpt>
      <trkpt lat="45.35685" lon="5.91507">
        <ele>1130.4599609375</ele>
        <time>2017-01-27T08:22:40Z</time>
      </trkpt>
      <trkpt lat="45.35691" lon="5.91501">
        <ele>1135.4599609375</ele>
        <time>2017-01-27T08:22:47Z</time>
      </trkpt>
      <trkpt lat="45.35697" lon="5.91491">
        <ele>1137.4599609375</ele>
        <time>2017-01-27T08:22:55Z</time>
      </trkpt>
      <trkpt lat="45.35697" lon="5.91481">
        <ele>1137.4599609375</ele>
        <time>2017-01-27T08:23:04Z</time>
      </trkpt>
      <trkpt lat="45.35699" lon="5.91471">
        <ele>1141.4599609375</ele>
        <time>2017-01-27T08:23:12Z</time>
      </trkpt>
      <trkpt lat="45.35698" lon="5.9146">
        <ele>1141.4599609375</ele>
        <time>2017-01-27T08:23:21Z</time>
      </trkpt>
      <trkpt lat="45.35699" lon="5.91449">
        <ele>1144.4599609375</ele>
        <time>2017-01-27T08:23:29Z</time>
      </trkpt>
      <trkpt lat="45.357" lon="5.91439">
        <ele>1145.4599609375</ele>
        <time>2017-01-27T08:23:37Z</time>
      </trkpt>
      <trkpt lat="45.35701" lon="5.91427">
        <ele>1149.4599609375</ele>
        <time>2017-01-27T08:23:45Z</time>
      </trkpt>
      <trkpt lat="45.35702" lon="5.91416">
        <ele>1150.4599609375</ele>
        <time>2017-01-27T08:23:52Z</time>
      </trkpt>
      <trkpt lat="45.35702" lon="5.91405">
        <ele>1154.4599609375</ele>
        <time>2017-01-27T08:23:59Z</time>
      </trkpt>
      <trkpt lat="45.35704" lon="5.91394">
        <ele>1154.4599609375</ele>
        <time>2017-01-27T08:24:08Z</time>
      </trkpt>
      <trkpt lat="45.35705" lon="5.91383">
        <ele>1156.4599609375</ele>
        <time>2017-01-27T08:24:18Z</time>
      </trkpt>
      <trkpt lat="45.35707" lon="5.91373">
        <ele>1155.4599609375</ele>
        <time>2017-01-27T08:24:27Z</time>
      </trkpt>
      <trkpt lat="45.35708" lon="5.91362">
        <ele>1156.4599609375</ele>
        <time>2017-01-27T08:24:37Z</time>
      </trkpt>
      <trkpt lat="45.35709" lon="5.91351">
        <ele>1162.4599609375</ele>
        <time>2017-01-27T08:24:48Z</time>
      </trkpt>
      <trkpt lat="45.35709" lon="5.9134">
        <ele>1165.4599609375</ele>
        <time>2017-01-27T08:24:55Z</time>
      </trkpt>
      <trkpt lat="45.3571" lon="5.91328">
        <ele>1168.4599609375</ele>
        <time>2017-01-27T08:25:04Z</time>
      </trkpt>
      <trkpt lat="45.35709" lon="5.91317">
        <ele>1170.4599609375</ele>
        <time>2017-01-27T08:25:16Z</time>
      </trkpt>
      <trkpt lat="45.35711" lon="5.91306">
        <ele>1171.4599609375</ele>
        <time>2017-01-27T08:25:34Z</time>
      </trkpt>
      <trkpt lat="45.35712" lon="5.91296">
        <ele>1176.4599609375</ele>
        <time>2017-01-27T08:25:42Z</time>
      </trkpt>
      <trkpt lat="45.35711" lon="5.91285">
        <ele>1173.4599609375</ele>
        <time>2017-01-27T08:25:52Z</time>
      </trkpt>
      <trkpt lat="45.35713" lon="5.91275">
        <ele>1176.4599609375</ele>
        <time>2017-01-27T08:26:04Z</time>
      </trkpt>
      <trkpt lat="45.35713" lon="5.91265">
        <ele>1179.4599609375</ele>
        <time>2017-01-27T08:26:20Z</time>
      </trkpt>
      <trkpt lat="45.35712" lon="5.91254">
        <ele>1182.4599609375</ele>
        <time>2017-01-27T08:26:29Z</time>
      </trkpt>
      <trkpt lat="45.35714" lon="5.91243">
        <ele>1189.4599609375</ele>
        <time>2017-01-27T08:26:40Z</time>
      </trkpt>
      <trkpt lat="45.35713" lon="5.91233">
        <ele>1188.4599609375</ele>
        <time>2017-01-27T08:26:53Z</time>
      </trkpt>
      <trkpt lat="45.35714" lon="5.91222">
        <ele>1193.4599609375</ele>
        <time>2017-01-27T08:27:04Z</time>
      </trkpt>
      <trkpt lat="45.35715" lon="5.91211">
        <ele>1197.4599609375</ele>
        <time>2017-01-27T08:27:14Z</time>
      </trkpt>
      <trkpt lat="45.35716" lon="5.912">
        <ele>1199.4599609375</ele>
        <time>2017-01-27T08:27:25Z</time>
      </trkpt>
      <trkpt lat="45.35716" lon="5.91188">
        <ele>1203.4599609375</ele>
        <time>2017-01-27T08:27:35Z</time>
      </trkpt>
      <trkpt lat="45.35717" lon="5.91178">
        <ele>1204.4599609375</ele>
        <time>2017-01-27T08:29:20Z</time>
      </trkpt>
      <trkpt lat="45.35713" lon="5.91168">
        <ele>1207.4599609375</ele>
        <time>2017-01-27T08:29:27Z</time>
      </trkpt>
      <trkpt lat="45.35712" lon="5.91158">
        <ele>1208.4599609375</ele>
        <time>2017-01-27T08:29:37Z</time>
      </trkpt>
      <trkpt lat="45.35712" lon="5.91148">
        <ele>1209.4599609375</ele>
        <time>2017-01-27T08:29:46Z</time>
      </trkpt>
      <trkpt lat="45.3571" lon="5.91137">
        <ele>1210.4599609375</ele>
        <time>2017-01-27T08:29:54Z</time>
      </trkpt>
      <trkpt lat="45.35709" lon="5.91126">
        <ele>1212.4599609375</ele>
        <time>2017-01-27T08:30:03Z</time>
      </trkpt>
      <trkpt lat="45.35707" lon="5.91116">
        <ele>1214.4599609375</ele>
        <time>2017-01-27T08:30:11Z</time>
      </trkpt>
      <trkpt lat="45.35704" lon="5.91104">
        <ele>1215.4599609375</ele>
        <time>2017-01-27T08:30:22Z</time>
      </trkpt>
      <trkpt lat="45.35702" lon="5.91094">
        <ele>1217.4599609375</ele>
        <time>2017-01-27T08:30:31Z</time>
      </trkpt>
      <trkpt lat="45.35701" lon="5.91084">
        <ele>1220.4599609375</ele>
        <time>2017-01-27T08:30:40Z</time>
      </trkpt>
      <trkpt lat="45.35699" lon="5.91073">
        <ele>1222.4599609375</ele>
        <time>2017-01-27T08:30:49Z</time>
      </trkpt>
      <trkpt lat="45.35696" lon="5.91063">
        <ele>1222.4599609375</ele>
        <time>2017-01-27T08:31:01Z</time>
      </trkpt>
      <trkpt lat="45.35696" lon="5.91052">
        <ele>1223.4599609375</ele>
        <time>2017-01-27T08:31:10Z</time>
      </trkpt>
      <trkpt lat="45.35697" lon="5.91041">
        <ele>1229.4599609375</ele>
        <time>2017-01-27T08:31:17Z</time>
      </trkpt>
      <trkpt lat="45.35695" lon="5.91031">
        <ele>1228.4599609375</ele>
        <time>2017-01-27T08:31:28Z</time>
      </trkpt>
      <trkpt lat="45.35692" lon="5.91021">
        <ele>1229.4599609375</ele>
        <time>2017-01-27T08:31:35Z</time>
      </trkpt>
      <trkpt lat="45.35689" lon="5.91009">
        <ele>1229.458984375</ele>
        <time>2017-01-27T08:31:47Z</time>
      </trkpt>
      <trkpt lat="45.35689" lon="5.90998">
        <ele>1235.458984375</ele>
        <time>2017-01-27T08:31:59Z</time>
      </trkpt>
      <trkpt lat="45.35687" lon="5.90988">
        <ele>1239.458984375</ele>
        <time>2017-01-27T08:32:09Z</time>
      </trkpt>
      <trkpt lat="45.35686" lon="5.90977">
        <ele>1240.458984375</ele>
        <time>2017-01-27T08:32:17Z</time>
      </trkpt>
      <trkpt lat="45.35686" lon="5.90965">
        <ele>1243.458984375</ele>
        <time>2017-01-27T08:32:24Z</time>
      </trkpt>
      <trkpt lat="45.35686" lon="5.90954">
        <ele>1245.458984375</ele>
        <time>2017-01-27T08:32:33Z</time>
      </trkpt>
      <trkpt lat="45.35685" lon="5.90942">
        <ele>1244.458984375</ele>
        <time>2017-01-27T08:32:40Z</time>
      </trkpt>
      <trkpt lat="45.35688" lon="5.90932">
        <ele>1251.458984375</ele>
        <time>2017-01-27T08:32:52Z</time>
      </trkpt>
      <trkpt lat="45.35688" lon="5.90919">
        <ele>1252.458984375</ele>
        <time>2017-01-27T08:33:05Z</time>
      </trkpt>
      <trkpt lat="45.3569" lon="5.90909">
        <ele>1255.458984375</ele>
        <time>2017-01-27T08:33:12Z</time>
      </trkpt>
      <trkpt lat="45.35691" lon="5.90898">
        <ele>1250.458984375</ele>
        <time>2017-01-27T08:33:21Z</time>
      </trkpt>
      <trkpt lat="45.35695" lon="5.90889">
        <ele>1252.458984375</ele>
        <time>2017-01-27T08:33:29Z</time>
      </trkpt>
      <trkpt lat="45.35697" lon="5.90878">
        <ele>1255.458984375</ele>
        <time>2017-01-27T08:33:35Z</time>
      </trkpt>
      <trkpt lat="45.35704" lon="5.90874">
        <ele>1263.458984375</ele>
        <time>2017-01-27T08:33:53Z</time>
      </trkpt>
      <trkpt lat="45.35711" lon="5.90874">
        <ele>1260.458984375</ele>
        <time>2017-01-27T08:34:03Z</time>
      </trkpt>
      <trkpt lat="45.35719" lon="5.90874">
        <ele>1267.458984375</ele>
        <time>2017-01-27T08:34:14Z</time>
      </trkpt>
      <trkpt lat="45.35726" lon="5.90872">
        <ele>1265.458984375</ele>
        <time>2017-01-27T08:34:20Z</time>
      </trkpt>
      <trkpt lat="45.35733" lon="5.90871">
        <ele>1270.458984375</ele>
        <time>2017-01-27T08:34:29Z</time>
      </trkpt>
      <trkpt lat="45.35742" lon="5.9087">
        <ele>1266.458984375</ele>
        <time>2017-01-27T08:34:42Z</time>
      </trkpt>
      <trkpt lat="45.35749" lon="5.90874">
        <ele>1270.458984375</ele>
        <time>2017-01-27T08:34:52Z</time>
      </trkpt>
      <trkpt lat="45.35758" lon="5.90876">
        <ele>1271.458984375</ele>
        <time>2017-01-27T08:34:59Z</time>
      </trkpt>
      <trkpt lat="45.35766" lon="5.90877">
        <ele>1275.458984375</ele>
        <time>2017-01-27T08:35:07Z</time>
      </trkpt>
      <trkpt lat="45.35774" lon="5.90875">
        <ele>1277.458984375</ele>
        <time>2017-01-27T08:35:12Z</time>
      </trkpt>
      <trkpt lat="45.35784" lon="5.9088">
        <ele>1277.4599609375</ele>
        <time>2017-01-27T08:35:28Z</time>
      </trkpt>
      <trkpt lat="45.35791" lon="5.90885">
        <ele>1277.4599609375</ele>
        <time>2017-01-27T08:35:34Z</time>
      </trkpt>
      <trkpt lat="45.35802" lon="5.90888">
        <ele>1281.4599609375</ele>
        <time>2017-01-27T08:35:43Z</time>
      </trkpt>
      <trkpt lat="45.35801" lon="5.90877">
        <ele>1291.4599609375</ele>
        <time>2017-01-27T08:35:59Z</time>
      </trkpt>
      <trkpt lat="45.35798" lon="5.90867">
        <ele>1294.4599609375</ele>
        <time>2017-01-27T08:36:16Z</time>
      </trkpt>
      <trkpt lat="45.35798" lon="5.90856">
        <ele>1294.4599609375</ele>
        <time>2017-01-27T08:36:23Z</time>
      </trkpt>
      <trkpt lat="45.35799" lon="5.90844">
        <ele>1298.4599609375</ele>
        <time>2017-01-27T08:36:34Z</time>
      </trkpt>
      <trkpt lat="45.35801" lon="5.90835">
        <ele>1304.458984375</ele>
        <time>2017-01-27T08:36:42Z</time>
      </trkpt>
      <trkpt lat="45.35803" lon="5.90824">
        <ele>1305.458984375</ele>
        <time>2017-01-27T08:36:57Z</time>
      </trkpt>
      <trkpt lat="45.35805" lon="5.90814">
        <ele>1306.458984375</ele>
        <time>2017-01-27T08:37:04Z</time>
      </trkpt>
      <trkpt lat="45.35808" lon="5.90802">
        <ele>1307.458984375</ele>
        <time>2017-01-27T08:37:13Z</time>
      </trkpt>
      <trkpt lat="45.35807" lon="5.90792">
        <ele>1309.458984375</ele>
        <time>2017-01-27T08:37:33Z</time>
      </trkpt>
      <trkpt lat="45.35807" lon="5.9078">
        <ele>1313.458984375</ele>
        <time>2017-01-27T08:37:44Z</time>
      </trkpt>
      <trkpt lat="45.35802" lon="5.90772">
        <ele>1315.458984375</ele>
        <time>2017-01-27T08:37:55Z</time>
      </trkpt>
      <trkpt lat="45.35797" lon="5.90764">
        <ele>1318.458984375</ele>
        <time>2017-01-27T08:38:05Z</time>
      </trkpt>
      <trkpt lat="45.35791" lon="5.90757">
        <ele>1316.458984375</ele>
        <time>2017-01-27T08:38:14Z</time>
      </trkpt>
      <trkpt lat="45.35783" lon="5.90752">
        <ele>1320.458984375</ele>
        <time>2017-01-27T08:38:20Z</time>
      </trkpt>
      <trkpt lat="45.35776" lon="5.90748">
        <ele>1322.458984375</ele>
        <time>2017-01-27T08:38:26Z</time>
      </trkpt>
      <trkpt lat="45.3577" lon="5.90741">
        <ele>1328.458984375</ele>
        <time>2017-01-27T08:38:34Z</time>
      </trkpt>
      <trkpt lat="45.35765" lon="5.90733">
        <ele>1331.458984375</ele>
        <time>2017-01-27T08:38:43Z</time>
      </trkpt>
      <trkpt lat="45.3576" lon="5.90726">
        <ele>1335.458984375</ele>
        <time>2017-01-27T08:38:54Z</time>
      </trkpt>
      <trkpt lat="45.35757" lon="5.90716">
        <ele>1339.458984375</ele>
        <time>2017-01-27T08:39:04Z</time>
      </trkpt>
      <trkpt lat="45.35752" lon="5.90707">
        <ele>1343.458984375</ele>
        <time>2017-01-27T08:39:13Z</time>
      </trkpt>
      <trkpt lat="45.35745" lon="5.907">
        <ele>1341.458984375</ele>
        <time>2017-01-27T08:39:23Z</time>
      </trkpt>
      <trkpt lat="45.35741" lon="5.9069">
        <ele>1338.458984375</ele>
        <time>2017-01-27T08:39:31Z</time>
      </trkpt>
      <trkpt lat="45.35736" lon="5.90683">
        <ele>1336.458984375</ele>
        <time>2017-01-27T08:39:40Z</time>
      </trkpt>
      <trkpt lat="45.35735" lon="5.90671">
        <ele>1336.458984375</ele>
        <time>2017-01-27T08:39:50Z</time>
      </trkpt>
      <trkpt lat="45.35729" lon="5.90665">
        <ele>1341.458984375</ele>
        <time>2017-01-27T08:39:55Z</time>
      </trkpt>
      <trkpt lat="45.35725" lon="5.90655">
        <ele>1346.458984375</ele>
        <time>2017-01-27T08:40:03Z</time>
      </trkpt>
      <trkpt lat="45.35721" lon="5.90646">
        <ele>1351.458984375</ele>
        <time>2017-01-27T08:40:10Z</time>
      </trkpt>
      <trkpt lat="45.3572" lon="5.90634">
        <ele>1355.458984375</ele>
        <time>2017-01-27T08:40:18Z</time>
      </trkpt>
      <trkpt lat="45.35716" lon="5.90626">
        <ele>1358.458984375</ele>
        <time>2017-01-27T08:40:25Z</time>
      </trkpt>
      <trkpt lat="45.35709" lon="5.90617">
        <ele>1361.458984375</ele>
        <time>2017-01-27T08:40:32Z</time>
      </trkpt>
      <trkpt lat="45.35706" lon="5.90602">
        <ele>1361.458984375</ele>
        <time>2017-01-27T08:40:42Z</time>
      </trkpt>
      <trkpt lat="45.35702" lon="5.90592">
        <ele>1360.458984375</ele>
        <time>2017-01-27T08:40:54Z</time>
      </trkpt>
      <trkpt lat="45.35695" lon="5.90587">
        <ele>1366.458984375</ele>
        <time>2017-01-27T08:41:01Z</time>
      </trkpt>
      <trkpt lat="45.35689" lon="5.9058">
        <ele>1374.458984375</ele>
        <time>2017-01-27T08:41:10Z</time>
      </trkpt>
      <trkpt lat="45.35683" lon="5.90571">
        <ele>1375.458984375</ele>
        <time>2017-01-27T08:41:19Z</time>
      </trkpt>
      <trkpt lat="45.35677" lon="5.90563">
        <ele>1374.458984375</ele>
        <time>2017-01-27T08:41:27Z</time>
      </trkpt>
      <trkpt lat="45.35673" lon="5.90555">
        <ele>1376.458984375</ele>
        <time>2017-01-27T08:41:34Z</time>
      </trkpt>
      <trkpt lat="45.35668" lon="5.90546">
        <ele>1374.458984375</ele>
        <time>2017-01-27T08:41:43Z</time>
      </trkpt>
      <trkpt lat="45.35667" lon="5.90535">
        <ele>1373.458984375</ele>
        <time>2017-01-27T08:41:54Z</time>
      </trkpt>
      <trkpt lat="45.35661" lon="5.90527">
        <ele>1376.458984375</ele>
        <time>2017-01-27T08:42:02Z</time>
      </trkpt>
      <trkpt lat="45.35658" lon="5.90518">
        <ele>1380.458984375</ele>
        <time>2017-01-27T08:42:12Z</time>
      </trkpt>
      <trkpt lat="45.35654" lon="5.90508">
        <ele>1385.458984375</ele>
        <time>2017-01-27T08:42:20Z</time>
      </trkpt>
      <trkpt lat="45.35652" lon="5.90497">
        <ele>1385.458984375</ele>
        <time>2017-01-27T08:42:27Z</time>
      </trkpt>
      <trkpt lat="45.35649" lon="5.90488">
        <ele>1391.458984375</ele>
        <time>2017-01-27T08:42:36Z</time>
      </trkpt>
      <trkpt lat="45.35647" lon="5.90477">
        <ele>1390.458984375</ele>
        <time>2017-01-27T08:42:43Z</time>
      </trkpt>
      <trkpt lat="45.35645" lon="5.90467">
        <ele>1392.458984375</ele>
        <time>2017-01-27T08:42:50Z</time>
      </trkpt>
      <trkpt lat="45.35643" lon="5.90457">
        <ele>1394.458984375</ele>
        <time>2017-01-27T08:42:58Z</time>
      </trkpt>
      <trkpt lat="45.35641" lon="5.90447">
        <ele>1394.458984375</ele>
        <time>2017-01-27T08:43:06Z</time>
      </trkpt>
      <trkpt lat="45.35636" lon="5.9044">
        <ele>1398.458984375</ele>
        <time>2017-01-27T08:43:13Z</time>
      </trkpt>
      <trkpt lat="45.3563" lon="5.90432">
        <ele>1400.458984375</ele>
        <time>2017-01-27T08:43:23Z</time>
      </trkpt>
      <trkpt lat="45.35627" lon="5.90422">
        <ele>1400.458984375</ele>
        <time>2017-01-27T08:43:30Z</time>
      </trkpt>
      <trkpt lat="45.35623" lon="5.90413">
        <ele>1402.458984375</ele>
        <time>2017-01-27T08:43:38Z</time>
      </trkpt>
      <trkpt lat="45.35618" lon="5.90405">
        <ele>1403.458984375</ele>
        <time>2017-01-27T08:43:44Z</time>
      </trkpt>
      <trkpt lat="45.35611" lon="5.904">
        <ele>1406.458984375</ele>
        <time>2017-01-27T08:43:51Z</time>
      </trkpt>
      <trkpt lat="45.35605" lon="5.90394">
        <ele>1411.458984375</ele>
        <time>2017-01-27T08:43:59Z</time>
      </trkpt>
      <trkpt lat="45.35598" lon="5.90389">
        <ele>1411.4580078125</ele>
        <time>2017-01-27T08:44:04Z</time>
      </trkpt>
      <trkpt lat="45.35591" lon="5.90384">
        <ele>1417.4580078125</ele>
        <time>2017-01-27T08:44:11Z</time>
      </trkpt>
      <trkpt lat="45.35585" lon="5.90378">
        <ele>1419.4580078125</ele>
        <time>2017-01-27T08:44:18Z</time>
      </trkpt>
      <trkpt lat="45.35579" lon="5.90372">
        <ele>1419.4580078125</ele>
        <time>2017-01-27T08:44:23Z</time>
      </trkpt>
      <trkpt lat="45.35573" lon="5.90364">
        <ele>1418.4580078125</ele>
        <time>2017-01-27T08:44:30Z</time>
      </trkpt>
      <trkpt lat="45.35567" lon="5.90359">
        <ele>1419.4580078125</ele>
        <time>2017-01-27T08:44:39Z</time>
      </trkpt>
      <trkpt lat="45.3556" lon="5.90352">
        <ele>1419.4580078125</ele>
        <time>2017-01-27T08:44:50Z</time>
      </trkpt>
      <trkpt lat="45.35553" lon="5.90349">
        <ele>1420.4580078125</ele>
        <time>2017-01-27T08:44:56Z</time>
      </trkpt>
      <trkpt lat="45.35538" lon="5.90348">
        <ele>1427.4580078125</ele>
        <time>2017-01-27T08:45:08Z</time>
      </trkpt>
      <trkpt lat="45.3553" lon="5.90344">
        <ele>1429.4580078125</ele>
        <time>2017-01-27T08:45:19Z</time>
      </trkpt>
      <trkpt lat="45.35524" lon="5.90339">
        <ele>1433.4580078125</ele>
        <time>2017-01-27T08:45:31Z</time>
      </trkpt>
      <trkpt lat="45.35517" lon="5.90334">
        <ele>1432.4580078125</ele>
        <time>2017-01-27T08:45:41Z</time>
      </trkpt>
      <trkpt lat="45.35523" lon="5.90325">
        <ele>1430.4580078125</ele>
        <time>2017-01-27T08:45:55Z</time>
      </trkpt>
      <trkpt lat="45.35525" lon="5.90314">
        <ele>1433.4580078125</ele>
        <time>2017-01-27T08:46:18Z</time>
      </trkpt>
      <trkpt lat="45.3552" lon="5.90306">
        <ele>1435.4580078125</ele>
        <time>2017-01-27T08:46:30Z</time>
      </trkpt>
      <trkpt lat="45.35517" lon="5.90294">
        <ele>1440.4580078125</ele>
        <time>2017-01-27T08:46:45Z</time>
      </trkpt>
      <trkpt lat="45.35512" lon="5.90286">
        <ele>1451.4580078125</ele>
        <time>2017-01-27T08:46:52Z</time>
      </trkpt>
      <trkpt lat="45.35509" lon="5.90277">
        <ele>1453.4580078125</ele>
        <time>2017-01-27T08:47:04Z</time>
      </trkpt>
      <trkpt lat="45.35508" lon="5.90267">
        <ele>1456.4580078125</ele>
        <time>2017-01-27T08:47:10Z</time>
      </trkpt>
      <trkpt lat="45.35509" lon="5.90254">
        <ele>1457.4580078125</ele>
        <time>2017-01-27T08:47:32Z</time>
      </trkpt>
      <trkpt lat="45.35508" lon="5.90242">
        <ele>1457.4580078125</ele>
        <time>2017-01-27T08:47:43Z</time>
      </trkpt>
      <trkpt lat="45.35505" lon="5.90232">
        <ele>1459.4580078125</ele>
        <time>2017-01-27T08:48:01Z</time>
      </trkpt>
      <trkpt lat="45.35504" lon="5.90221">
        <ele>1463.4580078125</ele>
        <time>2017-01-27T08:48:15Z</time>
      </trkpt>
      <trkpt lat="45.35501" lon="5.90211">
        <ele>1466.4580078125</ele>
        <time>2017-01-27T08:48:26Z</time>
      </trkpt>
      <trkpt lat="45.35497" lon="5.90202">
        <ele>1465.4580078125</ele>
        <time>2017-01-27T08:48:36Z</time>
      </trkpt>
      <trkpt lat="45.355" lon="5.90192">
        <ele>1464.4580078125</ele>
        <time>2017-01-27T08:48:44Z</time>
      </trkpt>
      <trkpt lat="45.35499" lon="5.90182">
        <ele>1465.4580078125</ele>
        <time>2017-01-27T08:48:55Z</time>
      </trkpt>
      <trkpt lat="45.355" lon="5.90172">
        <ele>1471.4580078125</ele>
        <time>2017-01-27T08:49:04Z</time>
      </trkpt>
      <trkpt lat="45.35507" lon="5.90168">
        <ele>1472.4580078125</ele>
        <time>2017-01-27T08:49:11Z</time>
      </trkpt>
      <trkpt lat="45.35516" lon="5.90167">
        <ele>1477.4580078125</ele>
        <time>2017-01-27T08:49:26Z</time>
      </trkpt>
      <trkpt lat="45.35523" lon="5.90166">
        <ele>1476.4580078125</ele>
        <time>2017-01-27T08:49:32Z</time>
      </trkpt>
      <trkpt lat="45.35531" lon="5.90164">
        <ele>1478.4580078125</ele>
        <time>2017-01-27T08:49:44Z</time>
      </trkpt>
      <trkpt lat="45.35538" lon="5.90162">
        <ele>1480.4580078125</ele>
        <time>2017-01-27T08:49:52Z</time>
      </trkpt>
      <trkpt lat="45.35547" lon="5.90155">
        <ele>1471.4580078125</ele>
        <time>2017-01-27T08:49:57Z</time>
      </trkpt>
      <trkpt lat="45.35556" lon="5.90154">
        <ele>1478.4580078125</ele>
        <time>2017-01-27T08:50:21Z</time>
      </trkpt>
      <trkpt lat="45.35564" lon="5.90154">
        <ele>1482.4580078125</ele>
        <time>2017-01-27T08:50:29Z</time>
      </trkpt>
      <trkpt lat="45.35571" lon="5.90153">
        <ele>1481.4580078125</ele>
        <time>2017-01-27T08:50:36Z</time>
      </trkpt>
      <trkpt lat="45.35579" lon="5.90158">
        <ele>1491.4580078125</ele>
        <time>2017-01-27T08:51:23Z</time>
      </trkpt>
      <trkpt lat="45.35586" lon="5.90159">
        <ele>1495.4580078125</ele>
        <time>2017-01-27T08:51:35Z</time>
      </trkpt>
      <trkpt lat="45.35594" lon="5.90162">
        <ele>1500.4580078125</ele>
        <time>2017-01-27T08:51:46Z</time>
      </trkpt>
      <trkpt lat="45.35601" lon="5.90162">
        <ele>1503.4580078125</ele>
        <time>2017-01-27T08:51:56Z</time>
      </trkpt>
      <trkpt lat="45.35609" lon="5.9016">
        <ele>1505.4580078125</ele>
        <time>2017-01-27T08:52:05Z</time>
      </trkpt>
      <trkpt lat="45.35618" lon="5.90161">
        <ele>1507.4580078125</ele>
        <time>2017-01-27T08:52:17Z</time>
      </trkpt>
      <trkpt lat="45.35624" lon="5.90157">
        <ele>1508.4580078125</ele>
        <time>2017-01-27T08:52:26Z</time>
      </trkpt>
      <trkpt lat="45.35631" lon="5.90154">
        <ele>1509.4580078125</ele>
        <time>2017-01-27T08:52:34Z</time>
      </trkpt>
      <trkpt lat="45.35639" lon="5.90157">
        <ele>1519.4580078125</ele>
        <time>2017-01-27T08:52:47Z</time>
      </trkpt>
      <trkpt lat="45.35647" lon="5.90157">
        <ele>1524.4580078125</ele>
        <time>2017-01-27T08:53:06Z</time>
      </trkpt>
      <trkpt lat="45.35654" lon="5.90154">
        <ele>1520.4580078125</ele>
        <time>2017-01-27T08:53:11Z</time>
      </trkpt>
      <trkpt lat="45.35662" lon="5.90155">
        <ele>1525.4580078125</ele>
        <time>2017-01-27T08:53:25Z</time>
      </trkpt>
      <trkpt lat="45.35671" lon="5.90155">
        <ele>1532.4580078125</ele>
        <time>2017-01-27T08:53:39Z</time>
      </trkpt>
      <trkpt lat="45.35678" lon="5.90152">
        <ele>1535.4580078125</ele>
        <time>2017-01-27T08:53:48Z</time>
      </trkpt>
      <trkpt lat="45.35676" lon="5.90142">
        <ele>1536.4580078125</ele>
        <time>2017-01-27T08:54:00Z</time>
      </trkpt>
      <trkpt lat="45.35672" lon="5.90133">
        <ele>1540.4580078125</ele>
        <time>2017-01-27T08:54:10Z</time>
      </trkpt>
      <trkpt lat="45.35671" lon="5.90122">
        <ele>1542.4580078125</ele>
        <time>2017-01-27T08:54:25Z</time>
      </trkpt>
      <trkpt lat="45.35666" lon="5.90115">
        <ele>1545.4580078125</ele>
        <time>2017-01-27T08:54:44Z</time>
      </trkpt>
      <trkpt lat="45.35661" lon="5.90105">
        <ele>1547.4580078125</ele>
        <time>2017-01-27T08:54:57Z</time>
      </trkpt>
      <trkpt lat="45.35654" lon="5.90101">
        <ele>1556.4580078125</ele>
        <time>2017-01-27T08:55:12Z</time>
      </trkpt>
      <trkpt lat="45.35649" lon="5.90092">
        <ele>1552.4580078125</ele>
        <time>2017-01-27T08:55:51Z</time>
      </trkpt>
      <trkpt lat="45.35647" lon="5.90082">
        <ele>1549.4580078125</ele>
        <time>2017-01-27T08:55:57Z</time>
      </trkpt>
      <trkpt lat="45.35643" lon="5.90072">
        <ele>1550.4580078125</ele>
        <time>2017-01-27T08:56:04Z</time>
      </trkpt>
      <trkpt lat="45.35637" lon="5.90064">
        <ele>1549.4580078125</ele>
        <time>2017-01-27T08:56:12Z</time>
      </trkpt>
      <trkpt lat="45.35634" lon="5.90053">
        <ele>1551.4580078125</ele>
        <time>2017-01-27T08:56:21Z</time>
      </trkpt>
      <trkpt lat="45.35628" lon="5.90044">
        <ele>1555.4580078125</ele>
        <time>2017-01-27T08:56:27Z</time>
      </trkpt>
      <trkpt lat="45.35624" lon="5.90035">
        <ele>1559.4580078125</ele>
        <time>2017-01-27T08:56:35Z</time>
      </trkpt>
      <trkpt lat="45.35623" lon="5.90024">
        <ele>1565.4580078125</ele>
        <time>2017-01-27T08:56:43Z</time>
      </trkpt>
      <trkpt lat="45.35621" lon="5.90014">
        <ele>1565.4580078125</ele>
        <time>2017-01-27T08:56:49Z</time>
      </trkpt>
      <trkpt lat="45.35616" lon="5.90005">
        <ele>1569.4580078125</ele>
        <time>2017-01-27T08:56:57Z</time>
      </trkpt>
      <trkpt lat="45.35615" lon="5.89994">
        <ele>1569.4580078125</ele>
        <time>2017-01-27T08:57:06Z</time>
      </trkpt>
      <trkpt lat="45.35619" lon="5.89983">
        <ele>1569.4580078125</ele>
        <time>2017-01-27T08:57:14Z</time>
      </trkpt>
      <trkpt lat="45.35619" lon="5.89972">
        <ele>1569.4580078125</ele>
        <time>2017-01-27T08:57:26Z</time>
      </trkpt>
      <trkpt lat="45.35621" lon="5.89962">
        <ele>1573.4580078125</ele>
        <time>2017-01-27T08:57:35Z</time>
      </trkpt>
      <trkpt lat="45.35627" lon="5.89955">
        <ele>1574.4580078125</ele>
        <time>2017-01-27T08:57:42Z</time>
      </trkpt>
      <trkpt lat="45.35626" lon="5.89944">
        <ele>1577.4580078125</ele>
        <time>2017-01-27T08:57:59Z</time>
      </trkpt>
      <trkpt lat="45.35631" lon="5.89934">
        <ele>1579.4580078125</ele>
        <time>2017-01-27T08:58:18Z</time>
      </trkpt>
      <trkpt lat="45.35634" lon="5.89925">
        <ele>1582.4580078125</ele>
        <time>2017-01-27T08:58:27Z</time>
      </trkpt>
      <trkpt lat="45.3564" lon="5.89916">
        <ele>1585.4580078125</ele>
        <time>2017-01-27T08:58:43Z</time>
      </trkpt>
      <trkpt lat="45.35638" lon="5.89905">
        <ele>1596.4580078125</ele>
        <time>2017-01-27T08:58:59Z</time>
      </trkpt>
      <trkpt lat="45.35635" lon="5.89894">
        <ele>1600.4580078125</ele>
        <time>2017-01-27T08:59:09Z</time>
      </trkpt>
      <trkpt lat="45.35635" lon="5.89883">
        <ele>1602.4580078125</ele>
        <time>2017-01-27T08:59:17Z</time>
      </trkpt>
      <trkpt lat="45.35634" lon="5.89872">
        <ele>1605.4580078125</ele>
        <time>2017-01-27T08:59:25Z</time>
      </trkpt>
      <trkpt lat="45.35634" lon="5.89862">
        <ele>1607.4580078125</ele>
        <time>2017-01-27T08:59:35Z</time>
      </trkpt>
      <trkpt lat="45.35631" lon="5.89852">
        <ele>1607.4580078125</ele>
        <time>2017-01-27T08:59:43Z</time>
      </trkpt>
      <trkpt lat="45.35625" lon="5.89842">
        <ele>1606.4580078125</ele>
        <time>2017-01-27T08:59:52Z</time>
      </trkpt>
      <trkpt lat="45.35632" lon="5.89838">
        <ele>1619.4580078125</ele>
        <time>2017-01-27T09:00:26Z</time>
      </trkpt>
      <trkpt lat="45.35631" lon="5.89826">
        <ele>1618.4580078125</ele>
        <time>2017-01-27T09:00:36Z</time>
      </trkpt>
      <trkpt lat="45.35627" lon="5.89816">
        <ele>1623.4580078125</ele>
        <time>2017-01-27T09:00:49Z</time>
      </trkpt>
      <trkpt lat="45.35622" lon="5.89809">
        <ele>1623.4580078125</ele>
        <time>2017-01-27T09:00:57Z</time>
      </trkpt>
      <trkpt lat="45.35619" lon="5.89797">
        <ele>1624.4580078125</ele>
        <time>2017-01-27T09:01:16Z</time>
      </trkpt>
      <trkpt lat="45.35619" lon="5.89785">
        <ele>1626.4580078125</ele>
        <time>2017-01-27T09:01:27Z</time>
      </trkpt>
      <trkpt lat="45.35618" lon="5.89775">
        <ele>1629.4580078125</ele>
        <time>2017-01-27T09:01:37Z</time>
      </trkpt>
      <trkpt lat="45.3562" lon="5.89764">
        <ele>1627.4580078125</ele>
        <time>2017-01-27T09:01:46Z</time>
      </trkpt>
      <trkpt lat="45.35616" lon="5.89755">
        <ele>1630.4580078125</ele>
        <time>2017-01-27T09:01:53Z</time>
      </trkpt>
      <trkpt lat="45.35615" lon="5.89745">
        <ele>1632.4580078125</ele>
        <time>2017-01-27T09:02:04Z</time>
      </trkpt>
      <trkpt lat="45.35616" lon="5.89734">
        <ele>1635.4580078125</ele>
        <time>2017-01-27T09:02:16Z</time>
      </trkpt>
      <trkpt lat="45.3561" lon="5.89724">
        <ele>1642.4580078125</ele>
        <time>2017-01-27T09:02:34Z</time>
      </trkpt>
      <trkpt lat="45.35615" lon="5.89715">
        <ele>1646.4580078125</ele>
        <time>2017-01-27T09:02:50Z</time>
      </trkpt>
      <trkpt lat="45.35613" lon="5.89704">
        <ele>1657.4580078125</ele>
        <time>2017-01-27T09:03:05Z</time>
      </trkpt>
      <trkpt lat="45.35616" lon="5.89695">
        <ele>1657.4580078125</ele>
        <time>2017-01-27T09:03:35Z</time>
      </trkpt>
      <trkpt lat="45.35614" lon="5.89685">
        <ele>1662.4580078125</ele>
        <time>2017-01-27T09:03:45Z</time>
      </trkpt>
      <trkpt lat="45.35615" lon="5.89675">
        <ele>1658.4580078125</ele>
        <time>2017-01-27T09:03:54Z</time>
      </trkpt>
      <trkpt lat="45.35618" lon="5.89665">
        <ele>1666.4580078125</ele>
        <time>2017-01-27T09:04:11Z</time>
      </trkpt>
      <trkpt lat="45.35613" lon="5.89656">
        <ele>1670.4580078125</ele>
        <time>2017-01-27T09:04:39Z</time>
      </trkpt>
      <trkpt lat="45.35613" lon="5.89644">
        <ele>1671.4580078125</ele>
        <time>2017-01-27T09:04:55Z</time>
      </trkpt>
      <trkpt lat="45.35621" lon="5.89645">
        <ele>1674.4580078125</ele>
        <time>2017-01-27T09:05:23Z</time>
      </trkpt>
      <trkpt lat="45.35627" lon="5.89651">
        <ele>1675.4580078125</ele>
        <time>2017-01-27T09:05:38Z</time>
      </trkpt>
      <trkpt lat="45.35634" lon="5.89656">
        <ele>1677.4580078125</ele>
        <time>2017-01-27T09:05:46Z</time>
      </trkpt>
      <trkpt lat="45.35641" lon="5.89654">
        <ele>1681.4580078125</ele>
        <time>2017-01-27T09:06:01Z</time>
      </trkpt>
      <trkpt lat="45.35648" lon="5.89658">
        <ele>1681.4580078125</ele>
        <time>2017-01-27T09:06:08Z</time>
      </trkpt>
      <trkpt lat="45.35649" lon="5.89647">
        <ele>1690.4580078125</ele>
        <time>2017-01-27T09:07:07Z</time>
      </trkpt>
      <trkpt lat="45.35644" lon="5.89638">
        <ele>1695.4580078125</ele>
        <time>2017-01-27T09:07:19Z</time>
      </trkpt>
      <trkpt lat="45.3565" lon="5.89632">
        <ele>1696.4580078125</ele>
        <time>2017-01-27T09:07:41Z</time>
      </trkpt>
      <trkpt lat="45.35652" lon="5.89621">
        <ele>1699.4580078125</ele>
        <time>2017-01-27T09:08:09Z</time>
      </trkpt>
      <trkpt lat="45.35649" lon="5.89611">
        <ele>1698.4580078125</ele>
        <time>2017-01-27T09:08:18Z</time>
      </trkpt>
      <trkpt lat="45.35644" lon="5.89604">
        <ele>1706.4580078125</ele>
        <time>2017-01-27T09:08:26Z</time>
      </trkpt>
      <trkpt lat="45.35639" lon="5.89596">
        <ele>1710.4580078125</ele>
        <time>2017-01-27T09:08:34Z</time>
      </trkpt>
      <trkpt lat="45.35633" lon="5.8959">
        <ele>1714.4580078125</ele>
        <time>2017-01-27T09:08:44Z</time>
      </trkpt>
      <trkpt lat="45.3563" lon="5.8958">
        <ele>1714.45703125</ele>
        <time>2017-01-27T09:08:57Z</time>
      </trkpt>
      <trkpt lat="45.35639" lon="5.89575">
        <ele>1713.45703125</ele>
        <time>2017-01-27T09:09:14Z</time>
      </trkpt>
      <trkpt lat="45.35646" lon="5.89573">
        <ele>1708.4580078125</ele>
        <time>2017-01-27T09:09:21Z</time>
      </trkpt>
      <trkpt lat="45.35653" lon="5.89572">
        <ele>1709.4580078125</ele>
        <time>2017-01-27T09:09:34Z</time>
      </trkpt>
      <trkpt lat="45.35661" lon="5.89571">
        <ele>1707.4580078125</ele>
        <time>2017-01-27T09:09:41Z</time>
      </trkpt>
      <trkpt lat="45.35667" lon="5.89567">
        <ele>1712.4580078125</ele>
        <time>2017-01-27T09:09:57Z</time>
      </trkpt>
      <trkpt lat="45.35662" lon="5.89559">
        <ele>1717.4580078125</ele>
        <time>2017-01-27T09:10:13Z</time>
      </trkpt>
      <trkpt lat="45.35656" lon="5.89552">
        <ele>1724.4580078125</ele>
        <time>2017-01-27T09:10:26Z</time>
      </trkpt>
      <trkpt lat="45.35664" lon="5.8955">
        <ele>1725.4580078125</ele>
        <time>2017-01-27T09:10:47Z</time>
      </trkpt>
      <trkpt lat="45.35671" lon="5.89555">
        <ele>1730.4580078125</ele>
        <time>2017-01-27T09:10:56Z</time>
      </trkpt>
      <trkpt lat="45.35678" lon="5.89554">
        <ele>1730.4580078125</ele>
        <time>2017-01-27T09:11:05Z</time>
      </trkpt>
      <trkpt lat="45.35683" lon="5.89561">
        <ele>1736.4580078125</ele>
        <time>2017-01-27T09:11:26Z</time>
      </trkpt>
      <trkpt lat="45.35691" lon="5.89564">
        <ele>1740.4580078125</ele>
        <time>2017-01-27T09:11:44Z</time>
      </trkpt>
      <trkpt lat="45.35698" lon="5.89567">
        <ele>1743.4580078125</ele>
        <time>2017-01-27T09:11:57Z</time>
      </trkpt>
      <trkpt lat="45.35699" lon="5.89556">
        <ele>1747.4580078125</ele>
        <time>2017-01-27T09:12:20Z</time>
      </trkpt>
      <trkpt lat="45.35695" lon="5.89547">
        <ele>1746.4580078125</ele>
        <time>2017-01-27T09:12:27Z</time>
      </trkpt>
      <trkpt lat="45.3569" lon="5.89539">
        <ele>1749.4580078125</ele>
        <time>2017-01-27T09:12:42Z</time>
      </trkpt>
      <trkpt lat="45.35699" lon="5.89537">
        <ele>1754.4580078125</ele>
        <time>2017-01-27T09:13:02Z</time>
      </trkpt>
      <trkpt lat="45.35704" lon="5.89544">
        <ele>1760.4580078125</ele>
        <time>2017-01-27T09:13:16Z</time>
      </trkpt>
      <trkpt lat="45.3571" lon="5.89553">
        <ele>1759.4580078125</ele>
        <time>2017-01-27T09:13:33Z</time>
      </trkpt>
      <trkpt lat="45.35713" lon="5.89543">
        <ele>1766.4580078125</ele>
        <time>2017-01-27T09:14:02Z</time>
      </trkpt>
      <trkpt lat="45.35709" lon="5.89535">
        <ele>1775.4580078125</ele>
        <time>2017-01-27T09:14:13Z</time>
      </trkpt>
      <trkpt lat="45.35715" lon="5.89539">
        <ele>1782.4580078125</ele>
        <time>2017-01-27T09:14:31Z</time>
      </trkpt>
      <trkpt lat="45.3571" lon="5.89547">
        <ele>1788.4580078125</ele>
        <time>2017-01-27T09:14:48Z</time>
      </trkpt>
      <trkpt lat="45.35711" lon="5.89557">
        <ele>1793.4580078125</ele>
        <time>2017-01-27T09:15:07Z</time>
      </trkpt>
      <trkpt lat="45.35718" lon="5.89561">
        <ele>1790.4580078125</ele>
        <time>2017-01-27T09:15:57Z</time>
      </trkpt>
      <trkpt lat="45.35722" lon="5.89571">
        <ele>1792.4580078125</ele>
        <time>2017-01-27T09:16:04Z</time>
      </trkpt>
      <trkpt lat="45.35727" lon="5.8958">
        <ele>1793.4580078125</ele>
        <time>2017-01-27T09:16:09Z</time>
      </trkpt>
      <trkpt lat="45.35731" lon="5.89589">
        <ele>1795.4580078125</ele>
        <time>2017-01-27T09:16:19Z</time>
      </trkpt>
      <trkpt lat="45.35735" lon="5.89599">
        <ele>1797.4580078125</ele>
        <time>2017-01-27T09:16:26Z</time>
      </trkpt>
      <trkpt lat="45.3574" lon="5.89609">
        <ele>1797.4580078125</ele>
        <time>2017-01-27T09:16:44Z</time>
      </trkpt>
      <trkpt lat="45.35741" lon="5.89619">
        <ele>1802.4580078125</ele>
        <time>2017-01-27T09:16:49Z</time>
      </trkpt>
      <trkpt lat="45.35744" lon="5.89628">
        <ele>1805.4580078125</ele>
        <time>2017-01-27T09:16:56Z</time>
      </trkpt>
      <trkpt lat="45.35744" lon="5.89639">
        <ele>1806.4580078125</ele>
        <time>2017-01-27T09:17:04Z</time>
      </trkpt>
      <trkpt lat="45.35749" lon="5.89649">
        <ele>1804.4580078125</ele>
        <time>2017-01-27T09:17:13Z</time>
      </trkpt>
      <trkpt lat="45.35745" lon="5.8966">
        <ele>1808.4580078125</ele>
        <time>2017-01-27T09:17:19Z</time>
      </trkpt>
      <trkpt lat="45.35744" lon="5.8967">
        <ele>1812.4580078125</ele>
        <time>2017-01-27T09:17:27Z</time>
      </trkpt>
      <trkpt lat="45.35745" lon="5.8968">
        <ele>1810.4580078125</ele>
        <time>2017-01-27T09:17:33Z</time>
      </trkpt>
      <trkpt lat="45.35749" lon="5.8969">
        <ele>1808.4580078125</ele>
        <time>2017-01-27T09:17:42Z</time>
      </trkpt>
      <trkpt lat="45.35746" lon="5.897">
        <ele>1808.4580078125</ele>
        <time>2017-01-27T09:17:49Z</time>
      </trkpt>
      <trkpt lat="45.35743" lon="5.89709">
        <ele>1808.4580078125</ele>
        <time>2017-01-27T09:17:57Z</time>
      </trkpt>
      <trkpt lat="45.35741" lon="5.8972">
        <ele>1808.4580078125</ele>
        <time>2017-01-27T09:18:06Z</time>
      </trkpt>
      <trkpt lat="45.3574" lon="5.89731">
        <ele>1812.4580078125</ele>
        <time>2017-01-27T09:18:15Z</time>
      </trkpt>
      <trkpt lat="45.35738" lon="5.89741">
        <ele>1814.4580078125</ele>
        <time>2017-01-27T09:18:22Z</time>
      </trkpt>
      <trkpt lat="45.35734" lon="5.8975">
        <ele>1818.4580078125</ele>
        <time>2017-01-27T09:18:29Z</time>
      </trkpt>
      <trkpt lat="45.35737" lon="5.89759">
        <ele>1817.4580078125</ele>
        <time>2017-01-27T09:18:36Z</time>
      </trkpt>
      <trkpt lat="45.35742" lon="5.89768">
        <ele>1816.4580078125</ele>
        <time>2017-01-27T09:18:42Z</time>
      </trkpt>
      <trkpt lat="45.35747" lon="5.89775">
        <ele>1816.4580078125</ele>
        <time>2017-01-27T09:18:47Z</time>
      </trkpt>
      <trkpt lat="45.35754" lon="5.89781">
        <ele>1817.4580078125</ele>
        <time>2017-01-27T09:18:53Z</time>
      </trkpt>
      <trkpt lat="45.35761" lon="5.89788">
        <ele>1814.4580078125</ele>
        <time>2017-01-27T09:18:59Z</time>
      </trkpt>
      <trkpt lat="45.35766" lon="5.89797">
        <ele>1816.4580078125</ele>
        <time>2017-01-27T09:19:08Z</time>
      </trkpt>
      <trkpt lat="45.35775" lon="5.89796">
        <ele>1814.4580078125</ele>
        <time>2017-01-27T09:19:17Z</time>
      </trkpt>
      <trkpt lat="45.35783" lon="5.89795">
        <ele>1815.4580078125</ele>
        <time>2017-01-27T09:19:24Z</time>
      </trkpt>
      <trkpt lat="45.35795" lon="5.89782">
        <ele>1814.4580078125</ele>
        <time>2017-01-27T09:19:35Z</time>
      </trkpt>
      <trkpt lat="45.35802" lon="5.89771">
        <ele>1811.4580078125</ele>
        <time>2017-01-27T09:19:54Z</time>
      </trkpt>
      <trkpt lat="45.3581" lon="5.89753">
        <ele>1818.4580078125</ele>
        <time>2017-01-27T09:20:01Z</time>
      </trkpt>
      <trkpt lat="45.35817" lon="5.89748">
        <ele>1819.4580078125</ele>
        <time>2017-01-27T09:20:11Z</time>
      </trkpt>
      <trkpt lat="45.35825" lon="5.89751">
        <ele>1816.4580078125</ele>
        <time>2017-01-27T09:20:37Z</time>
      </trkpt>
      <trkpt lat="45.35823" lon="5.8974">
        <ele>1818.4580078125</ele>
        <time>2017-01-27T09:21:03Z</time>
      </trkpt>
      <trkpt lat="45.35816" lon="5.89737">
        <ele>1821.4580078125</ele>
        <time>2017-01-27T09:21:12Z</time>
      </trkpt>
      <trkpt lat="45.35814" lon="5.89726">
        <ele>1824.4580078125</ele>
        <time>2017-01-27T09:21:51Z</time>
      </trkpt>
      <trkpt lat="45.35814" lon="5.89716">
        <ele>1828.4580078125</ele>
        <time>2017-01-27T09:22:02Z</time>
      </trkpt>
      <trkpt lat="45.35817" lon="5.89706">
        <ele>1831.4580078125</ele>
        <time>2017-01-27T09:22:11Z</time>
      </trkpt>
      <trkpt lat="45.35816" lon="5.89695">
        <ele>1832.4580078125</ele>
        <time>2017-01-27T09:22:24Z</time>
      </trkpt>
      <trkpt lat="45.35825" lon="5.89692">
        <ele>1833.4580078125</ele>
        <time>2017-01-27T09:29:07Z</time>
      </trkpt>
      <trkpt lat="45.35821" lon="5.89682">
        <ele>1834.4580078125</ele>
        <time>2017-01-27T09:30:25Z</time>
      </trkpt>
      <trkpt lat="45.35813" lon="5.89681">
        <ele>1831.4580078125</ele>
        <time>2017-01-27T09:30:38Z</time>
      </trkpt>
      <trkpt lat="45.35805" lon="5.89671">
        <ele>1834.4580078125</ele>
        <time>2017-01-27T09:30:47Z</time>
      </trkpt>
      <trkpt lat="45.358" lon="5.89663">
        <ele>1835.4580078125</ele>
        <time>2017-01-27T09:30:52Z</time>
      </trkpt>
      <trkpt lat="45.35795" lon="5.89654">
        <ele>1837.4580078125</ele>
        <time>2017-01-27T09:31:00Z</time>
      </trkpt>
      <trkpt lat="45.3579" lon="5.89644">
        <ele>1838.4580078125</ele>
        <time>2017-01-27T09:31:05Z</time>
      </trkpt>
      <trkpt lat="45.35787" lon="5.89634">
        <ele>1838.4580078125</ele>
        <time>2017-01-27T09:31:10Z</time>
      </trkpt>
      <trkpt lat="45.35782" lon="5.89609">
        <ele>1833.4580078125</ele>
        <time>2017-01-27T09:31:18Z</time>
      </trkpt>
      <trkpt lat="45.3577" lon="5.8957">
        <ele>1830.4580078125</ele>
        <time>2017-01-27T09:31:24Z</time>
      </trkpt>
      <trkpt lat="45.35761" lon="5.8955">
        <ele>1827.4580078125</ele>
        <time>2017-01-27T09:31:29Z</time>
      </trkpt>
      <trkpt lat="45.35751" lon="5.89531">
        <ele>1821.4580078125</ele>
        <time>2017-01-27T09:31:34Z</time>
      </trkpt>
      <trkpt lat="45.35739" lon="5.89512">
        <ele>1820.4580078125</ele>
        <time>2017-01-27T09:31:41Z</time>
      </trkpt>
      <trkpt lat="45.35732" lon="5.89504">
        <ele>1819.4580078125</ele>
        <time>2017-01-27T09:31:49Z</time>
      </trkpt>
      <trkpt lat="45.35727" lon="5.89497">
        <ele>1820.4580078125</ele>
        <time>2017-01-27T09:31:52Z</time>
      </trkpt>
      <trkpt lat="45.35723" lon="5.89487">
        <ele>1818.4580078125</ele>
        <time>2017-01-27T09:31:58Z</time>
      </trkpt>
      <trkpt lat="45.35709" lon="5.89472">
        <ele>1818.4580078125</ele>
        <time>2017-01-27T09:32:03Z</time>
      </trkpt>
      <trkpt lat="45.35703" lon="5.89465">
        <ele>1817.45703125</ele>
        <time>2017-01-27T09:32:08Z</time>
      </trkpt>
      <trkpt lat="45.35691" lon="5.89451">
        <ele>1816.45703125</ele>
        <time>2017-01-27T09:32:17Z</time>
      </trkpt>
      <trkpt lat="45.35684" lon="5.89448">
        <ele>1815.45703125</ele>
        <time>2017-01-27T09:32:30Z</time>
      </trkpt>
      <trkpt lat="45.35679" lon="5.8944">
        <ele>1814.45703125</ele>
        <time>2017-01-27T09:32:44Z</time>
      </trkpt>
      <trkpt lat="45.35669" lon="5.89422">
        <ele>1811.45703125</ele>
        <time>2017-01-27T09:32:49Z</time>
      </trkpt>
      <trkpt lat="45.35652" lon="5.89394">
        <ele>1808.45703125</ele>
        <time>2017-01-27T09:32:56Z</time>
      </trkpt>
      <trkpt lat="45.35642" lon="5.89376">
        <ele>1808.45703125</ele>
        <time>2017-01-27T09:33:02Z</time>
      </trkpt>
      <trkpt lat="45.35631" lon="5.89359">
        <ele>1805.45703125</ele>
        <time>2017-01-27T09:33:09Z</time>
      </trkpt>
      <trkpt lat="45.35619" lon="5.89341">
        <ele>1800.45703125</ele>
        <time>2017-01-27T09:33:16Z</time>
      </trkpt>
      <trkpt lat="45.35606" lon="5.89308">
        <ele>1794.45703125</ele>
        <time>2017-01-27T09:33:22Z</time>
      </trkpt>
      <trkpt lat="45.3559" lon="5.8927">
        <ele>1788.45703125</ele>
        <time>2017-01-27T09:33:28Z</time>
      </trkpt>
      <trkpt lat="45.35574" lon="5.89234">
        <ele>1782.45703125</ele>
        <time>2017-01-27T09:33:33Z</time>
      </trkpt>
      <trkpt lat="45.35557" lon="5.89199">
        <ele>1775.45703125</ele>
        <time>2017-01-27T09:33:39Z</time>
      </trkpt>
      <trkpt lat="45.35549" lon="5.89187">
        <ele>1774.45703125</ele>
        <time>2017-01-27T09:33:41Z</time>
      </trkpt>
      <trkpt lat="45.35523" lon="5.89156">
        <ele>1771.45703125</ele>
        <time>2017-01-27T09:33:47Z</time>
      </trkpt>
      <trkpt lat="45.35503" lon="5.89138">
        <ele>1769.45703125</ele>
        <time>2017-01-27T09:33:53Z</time>
      </trkpt>
      <trkpt lat="45.35483" lon="5.89122">
        <ele>1768.45703125</ele>
        <time>2017-01-27T09:33:59Z</time>
      </trkpt>
      <trkpt lat="45.35467" lon="5.89113">
        <ele>1765.45703125</ele>
        <time>2017-01-27T09:34:04Z</time>
      </trkpt>
      <trkpt lat="45.35438" lon="5.89096">
        <ele>1762.4560546875</ele>
        <time>2017-01-27T09:34:10Z</time>
      </trkpt>
      <trkpt lat="45.35415" lon="5.89049">
        <ele>1757.4560546875</ele>
        <time>2017-01-27T09:34:15Z</time>
      </trkpt>
      <trkpt lat="45.35402" lon="5.89007">
        <ele>1754.4560546875</ele>
        <time>2017-01-27T09:34:20Z</time>
      </trkpt>
      <trkpt lat="45.35393" lon="5.8896">
        <ele>1748.4560546875</ele>
        <time>2017-01-27T09:34:26Z</time>
      </trkpt>
      <trkpt lat="45.35388" lon="5.88942">
        <ele>1747.4560546875</ele>
        <time>2017-01-27T09:34:28Z</time>
      </trkpt>
      <trkpt lat="45.35371" lon="5.88904">
        <ele>1743.4560546875</ele>
        <time>2017-01-27T09:34:34Z</time>
      </trkpt>
      <trkpt lat="45.35355" lon="5.88874">
        <ele>1742.4560546875</ele>
        <time>2017-01-27T09:34:40Z</time>
      </trkpt>
      <trkpt lat="45.3534" lon="5.88841">
        <ele>1739.4560546875</ele>
        <time>2017-01-27T09:34:46Z</time>
      </trkpt>
      <trkpt lat="45.35326" lon="5.88827">
        <ele>1739.4560546875</ele>
        <time>2017-01-27T09:34:52Z</time>
      </trkpt>
      <trkpt lat="45.35312" lon="5.88814">
        <ele>1737.4560546875</ele>
        <time>2017-01-27T09:35:00Z</time>
      </trkpt>
      <trkpt lat="45.35307" lon="5.88807">
        <ele>1737.4560546875</ele>
        <time>2017-01-27T09:39:17Z</time>
      </trkpt>
      <trkpt lat="45.35302" lon="5.88799">
        <ele>1737.4560546875</ele>
        <time>2017-01-27T09:39:23Z</time>
      </trkpt>
      <trkpt lat="45.35297" lon="5.88791">
        <ele>1736.4560546875</ele>
        <time>2017-01-27T09:39:28Z</time>
      </trkpt>
      <trkpt lat="45.3529" lon="5.88784">
        <ele>1737.4560546875</ele>
        <time>2017-01-27T09:39:33Z</time>
      </trkpt>
      <trkpt lat="45.35285" lon="5.88777">
        <ele>1738.4560546875</ele>
        <time>2017-01-27T09:39:38Z</time>
      </trkpt>
      <trkpt lat="45.35278" lon="5.88767">
        <ele>1739.4560546875</ele>
        <time>2017-01-27T09:39:44Z</time>
      </trkpt>
      <trkpt lat="45.35271" lon="5.88763">
        <ele>1739.4560546875</ele>
        <time>2017-01-27T09:39:49Z</time>
      </trkpt>
      <trkpt lat="45.35262" lon="5.88762">
        <ele>1739.4560546875</ele>
        <time>2017-01-27T09:39:58Z</time>
      </trkpt>
      <trkpt lat="45.35253" lon="5.8876">
        <ele>1739.4560546875</ele>
        <time>2017-01-27T09:40:04Z</time>
      </trkpt>
      <trkpt lat="45.35243" lon="5.88743">
        <ele>1742.4560546875</ele>
        <time>2017-01-27T09:40:15Z</time>
      </trkpt>
      <trkpt lat="45.35236" lon="5.88737">
        <ele>1741.4560546875</ele>
        <time>2017-01-27T09:40:23Z</time>
      </trkpt>
      <trkpt lat="45.35229" lon="5.88731">
        <ele>1739.4560546875</ele>
        <time>2017-01-27T09:40:30Z</time>
      </trkpt>
      <trkpt lat="45.35217" lon="5.88717">
        <ele>1738.4549560547</ele>
        <time>2017-01-27T09:40:38Z</time>
      </trkpt>
      <trkpt lat="45.35212" lon="5.88709">
        <ele>1740.4549560547</ele>
        <time>2017-01-27T09:40:50Z</time>
      </trkpt>
      <trkpt lat="45.35205" lon="5.88701">
        <ele>1740.4549560547</ele>
        <time>2017-01-27T09:40:55Z</time>
      </trkpt>
      <trkpt lat="45.352" lon="5.88693">
        <ele>1740.4549560547</ele>
        <time>2017-01-27T09:41:00Z</time>
      </trkpt>
      <trkpt lat="45.35189" lon="5.88679">
        <ele>1739.4549560547</ele>
        <time>2017-01-27T09:41:08Z</time>
      </trkpt>
      <trkpt lat="45.35175" lon="5.88664">
        <ele>1739.4549560547</ele>
        <time>2017-01-27T09:41:16Z</time>
      </trkpt>
      <trkpt lat="45.35169" lon="5.88657">
        <ele>1740.4549560547</ele>
        <time>2017-01-27T09:41:21Z</time>
      </trkpt>
      <trkpt lat="45.35159" lon="5.88639">
        <ele>1741.4549560547</ele>
        <time>2017-01-27T09:41:29Z</time>
      </trkpt>
      <trkpt lat="45.35153" lon="5.88633">
        <ele>1741.4549560547</ele>
        <time>2017-01-27T09:41:34Z</time>
      </trkpt>
      <trkpt lat="45.35149" lon="5.88624">
        <ele>1740.4549560547</ele>
        <time>2017-01-27T09:41:39Z</time>
      </trkpt>
      <trkpt lat="45.35142" lon="5.88616">
        <ele>1742.4549560547</ele>
        <time>2017-01-27T09:41:45Z</time>
      </trkpt>
      <trkpt lat="45.35137" lon="5.8861">
        <ele>1742.4549560547</ele>
        <time>2017-01-27T09:41:50Z</time>
      </trkpt>
      <trkpt lat="45.35131" lon="5.88603">
        <ele>1744.4549560547</ele>
        <time>2017-01-27T09:41:56Z</time>
      </trkpt>
      <trkpt lat="45.3512" lon="5.88586">
        <ele>1743.4549560547</ele>
        <time>2017-01-27T09:42:06Z</time>
      </trkpt>
      <trkpt lat="45.35114" lon="5.88578">
        <ele>1741.4549560547</ele>
        <time>2017-01-27T09:42:12Z</time>
      </trkpt>
      <trkpt lat="45.35108" lon="5.8857">
        <ele>1742.4549560547</ele>
        <time>2017-01-27T09:42:16Z</time>
      </trkpt>
      <trkpt lat="45.35104" lon="5.88561">
        <ele>1739.4549560547</ele>
        <time>2017-01-27T09:42:21Z</time>
      </trkpt>
      <trkpt lat="45.35101" lon="5.8855">
        <ele>1742.4549560547</ele>
        <time>2017-01-27T09:42:26Z</time>
      </trkpt>
      <trkpt lat="45.35101" lon="5.88539">
        <ele>1739.4549560547</ele>
        <time>2017-01-27T09:42:30Z</time>
      </trkpt>
      <trkpt lat="45.351" lon="5.88527">
        <ele>1742.4549560547</ele>
        <time>2017-01-27T09:42:37Z</time>
      </trkpt>
      <trkpt lat="45.35103" lon="5.88516">
        <ele>1740.4549560547</ele>
        <time>2017-01-27T09:42:43Z</time>
      </trkpt>
      <trkpt lat="45.35101" lon="5.88506">
        <ele>1744.4549560547</ele>
        <time>2017-01-27T09:42:49Z</time>
      </trkpt>
      <trkpt lat="45.35101" lon="5.88495">
        <ele>1743.4549560547</ele>
        <time>2017-01-27T09:42:56Z</time>
      </trkpt>
      <trkpt lat="45.35096" lon="5.88484">
        <ele>1748.4549560547</ele>
        <time>2017-01-27T09:43:04Z</time>
      </trkpt>
      <trkpt lat="45.35092" lon="5.88475">
        <ele>1749.4549560547</ele>
        <time>2017-01-27T09:43:10Z</time>
      </trkpt>
      <trkpt lat="45.3509" lon="5.88464">
        <ele>1751.4549560547</ele>
        <time>2017-01-27T09:43:18Z</time>
      </trkpt>
      <trkpt lat="45.35086" lon="5.88453">
        <ele>1752.4549560547</ele>
        <time>2017-01-27T09:43:26Z</time>
      </trkpt>
      <trkpt lat="45.35079" lon="5.88446">
        <ele>1753.4549560547</ele>
        <time>2017-01-27T09:43:33Z</time>
      </trkpt>
      <trkpt lat="45.35073" lon="5.88437">
        <ele>1754.4549560547</ele>
        <time>2017-01-27T09:43:38Z</time>
      </trkpt>
      <trkpt lat="45.35066" lon="5.88432">
        <ele>1754.4549560547</ele>
        <time>2017-01-27T09:43:44Z</time>
      </trkpt>
      <trkpt lat="45.35058" lon="5.88433">
        <ele>1753.4549560547</ele>
        <time>2017-01-27T09:43:50Z</time>
      </trkpt>
      <trkpt lat="45.3504" lon="5.88436">
        <ele>1747.4549560547</ele>
        <time>2017-01-27T09:43:59Z</time>
      </trkpt>
      <trkpt lat="45.35033" lon="5.88436">
        <ele>1747.4549560547</ele>
        <time>2017-01-27T09:44:01Z</time>
      </trkpt>
      <trkpt lat="45.35025" lon="5.88432">
        <ele>1747.4549560547</ele>
        <time>2017-01-27T09:44:03Z</time>
      </trkpt>
      <trkpt lat="45.35014" lon="5.88412">
        <ele>1741.4549560547</ele>
        <time>2017-01-27T09:44:11Z</time>
      </trkpt>
      <trkpt lat="45.35008" lon="5.88404">
        <ele>1742.4549560547</ele>
        <time>2017-01-27T09:44:19Z</time>
      </trkpt>
      <trkpt lat="45.35" lon="5.88406">
        <ele>1741.4549560547</ele>
        <time>2017-01-27T09:44:27Z</time>
      </trkpt>
      <trkpt lat="45.34991" lon="5.88403">
        <ele>1742.4549560547</ele>
        <time>2017-01-27T09:44:35Z</time>
      </trkpt>
      <trkpt lat="45.34985" lon="5.884">
        <ele>1744.4549560547</ele>
        <time>2017-01-27T09:44:43Z</time>
      </trkpt>
      <trkpt lat="45.34977" lon="5.88396">
        <ele>1743.4549560547</ele>
        <time>2017-01-27T09:45:16Z</time>
      </trkpt>
      <trkpt lat="45.34966" lon="5.88377">
        <ele>1739.4549560547</ele>
        <time>2017-01-27T09:45:28Z</time>
      </trkpt>
      <trkpt lat="45.34958" lon="5.88377">
        <ele>1738.4549560547</ele>
        <time>2017-01-27T09:45:35Z</time>
      </trkpt>
      <trkpt lat="45.3495" lon="5.88374">
        <ele>1742.4539794922</ele>
        <time>2017-01-27T09:45:41Z</time>
      </trkpt>
      <trkpt lat="45.34944" lon="5.88369">
        <ele>1743.4539794922</ele>
        <time>2017-01-27T09:45:48Z</time>
      </trkpt>
      <trkpt lat="45.34936" lon="5.88367">
        <ele>1742.4539794922</ele>
        <time>2017-01-27T09:45:54Z</time>
      </trkpt>
      <trkpt lat="45.34928" lon="5.88364">
        <ele>1743.4539794922</ele>
        <time>2017-01-27T09:45:59Z</time>
      </trkpt>
      <trkpt lat="45.34911" lon="5.88361">
        <ele>1741.4539794922</ele>
        <time>2017-01-27T09:46:09Z</time>
      </trkpt>
      <trkpt lat="45.34897" lon="5.88355">
        <ele>1742.4539794922</ele>
        <time>2017-01-27T09:46:18Z</time>
      </trkpt>
      <trkpt lat="45.3489" lon="5.88353">
        <ele>1741.4539794922</ele>
        <time>2017-01-27T09:46:25Z</time>
      </trkpt>
      <trkpt lat="45.34883" lon="5.88349">
        <ele>1742.4539794922</ele>
        <time>2017-01-27T09:46:31Z</time>
      </trkpt>
      <trkpt lat="45.34875" lon="5.88346">
        <ele>1742.4539794922</ele>
        <time>2017-01-27T09:46:37Z</time>
      </trkpt>
      <trkpt lat="45.34867" lon="5.88344">
        <ele>1743.4539794922</ele>
        <time>2017-01-27T09:46:44Z</time>
      </trkpt>
      <trkpt lat="45.3486" lon="5.88343">
        <ele>1742.4539794922</ele>
        <time>2017-01-27T09:46:49Z</time>
      </trkpt>
      <trkpt lat="45.34853" lon="5.88336">
        <ele>1741.4539794922</ele>
        <time>2017-01-27T09:46:58Z</time>
      </trkpt>
      <trkpt lat="45.34846" lon="5.88331">
        <ele>1741.4539794922</ele>
        <time>2017-01-27T09:47:04Z</time>
      </trkpt>
      <trkpt lat="45.3484" lon="5.88324">
        <ele>1742.4539794922</ele>
        <time>2017-01-27T09:47:09Z</time>
      </trkpt>
      <trkpt lat="45.34832" lon="5.88321">
        <ele>1744.4539794922</ele>
        <time>2017-01-27T09:47:14Z</time>
      </trkpt>
      <trkpt lat="45.34824" lon="5.88318">
        <ele>1743.4539794922</ele>
        <time>2017-01-27T09:47:20Z</time>
      </trkpt>
      <trkpt lat="45.34818" lon="5.88312">
        <ele>1746.4539794922</ele>
        <time>2017-01-27T09:47:29Z</time>
      </trkpt>
      <trkpt lat="45.34811" lon="5.88307">
        <ele>1745.4539794922</ele>
        <time>2017-01-27T09:47:37Z</time>
      </trkpt>
      <trkpt lat="45.34808" lon="5.88296">
        <ele>1746.4539794922</ele>
        <time>2017-01-27T09:47:46Z</time>
      </trkpt>
      <trkpt lat="45.3481" lon="5.88285">
        <ele>1748.4539794922</ele>
        <time>2017-01-27T09:47:55Z</time>
      </trkpt>
      <trkpt lat="45.3481" lon="5.88275">
        <ele>1749.4539794922</ele>
        <time>2017-01-27T09:48:01Z</time>
      </trkpt>
      <trkpt lat="45.34812" lon="5.88264">
        <ele>1748.4539794922</ele>
        <time>2017-01-27T09:48:07Z</time>
      </trkpt>
      <trkpt lat="45.34811" lon="5.88253">
        <ele>1747.4539794922</ele>
        <time>2017-01-27T09:48:19Z</time>
      </trkpt>
      <trkpt lat="45.34807" lon="5.8823">
        <ele>1746.4539794922</ele>
        <time>2017-01-27T09:48:27Z</time>
      </trkpt>
      <trkpt lat="45.34802" lon="5.88221">
        <ele>1744.4539794922</ele>
        <time>2017-01-27T09:48:32Z</time>
      </trkpt>
      <trkpt lat="45.34795" lon="5.88216">
        <ele>1746.4539794922</ele>
        <time>2017-01-27T09:48:38Z</time>
      </trkpt>
      <trkpt lat="45.34788" lon="5.88211">
        <ele>1745.4539794922</ele>
        <time>2017-01-27T09:48:43Z</time>
      </trkpt>
      <trkpt lat="45.34782" lon="5.88202">
        <ele>1743.4539794922</ele>
        <time>2017-01-27T09:48:49Z</time>
      </trkpt>
      <trkpt lat="45.34777" lon="5.88194">
        <ele>1741.4539794922</ele>
        <time>2017-01-27T09:48:56Z</time>
      </trkpt>
      <trkpt lat="45.3477" lon="5.88188">
        <ele>1739.4539794922</ele>
        <time>2017-01-27T09:49:03Z</time>
      </trkpt>
      <trkpt lat="45.34766" lon="5.88179">
        <ele>1740.4539794922</ele>
        <time>2017-01-27T09:49:09Z</time>
      </trkpt>
      <trkpt lat="45.34765" lon="5.88167">
        <ele>1737.4539794922</ele>
        <time>2017-01-27T09:49:19Z</time>
      </trkpt>
      <trkpt lat="45.34761" lon="5.88157">
        <ele>1741.4539794922</ele>
        <time>2017-01-27T09:49:25Z</time>
      </trkpt>
      <trkpt lat="45.34757" lon="5.88148">
        <ele>1742.4539794922</ele>
        <time>2017-01-27T09:49:30Z</time>
      </trkpt>
      <trkpt lat="45.34753" lon="5.88138">
        <ele>1744.4539794922</ele>
        <time>2017-01-27T09:49:35Z</time>
      </trkpt>
      <trkpt lat="45.34747" lon="5.8813">
        <ele>1743.4539794922</ele>
        <time>2017-01-27T09:49:44Z</time>
      </trkpt>
      <trkpt lat="45.34739" lon="5.88106">
        <ele>1736.4539794922</ele>
        <time>2017-01-27T09:49:49Z</time>
      </trkpt>
      <trkpt lat="45.34725" lon="5.8809">
        <ele>1737.4539794922</ele>
        <time>2017-01-27T09:50:01Z</time>
      </trkpt>
      <trkpt lat="45.34719" lon="5.88084">
        <ele>1738.4539794922</ele>
        <time>2017-01-27T09:50:19Z</time>
      </trkpt>
      <trkpt lat="45.34714" lon="5.88075">
        <ele>1739.4539794922</ele>
        <time>2017-01-27T09:50:25Z</time>
      </trkpt>
      <trkpt lat="45.34708" lon="5.88069">
        <ele>1741.4539794922</ele>
        <time>2017-01-27T09:50:36Z</time>
      </trkpt>
      <trkpt lat="45.34703" lon="5.88061">
        <ele>1741.4539794922</ele>
        <time>2017-01-27T09:51:41Z</time>
      </trkpt>
      <trkpt lat="45.34695" lon="5.8806">
        <ele>1744.4539794922</ele>
        <time>2017-01-27T09:52:49Z</time>
      </trkpt>
      <trkpt lat="45.34689" lon="5.88054">
        <ele>1749.4539794922</ele>
        <time>2017-01-27T09:52:56Z</time>
      </trkpt>
      <trkpt lat="45.34683" lon="5.88047">
        <ele>1750.4539794922</ele>
        <time>2017-01-27T09:53:03Z</time>
      </trkpt>
      <trkpt lat="45.34676" lon="5.88041">
        <ele>1751.4530029297</ele>
        <time>2017-01-27T09:53:12Z</time>
      </trkpt>
      <trkpt lat="45.34669" lon="5.88041">
        <ele>1754.4530029297</ele>
        <time>2017-01-27T09:53:22Z</time>
      </trkpt>
      <trkpt lat="45.34662" lon="5.88036">
        <ele>1755.4530029297</ele>
        <time>2017-01-27T09:53:35Z</time>
      </trkpt>
      <trkpt lat="45.34656" lon="5.8803">
        <ele>1754.4530029297</ele>
        <time>2017-01-27T09:53:44Z</time>
      </trkpt>
      <trkpt lat="45.34651" lon="5.88021">
        <ele>1758.4530029297</ele>
        <time>2017-01-27T09:54:03Z</time>
      </trkpt>
      <trkpt lat="45.34645" lon="5.88012">
        <ele>1758.4530029297</ele>
        <time>2017-01-27T09:54:11Z</time>
      </trkpt>
      <trkpt lat="45.34643" lon="5.88002">
        <ele>1757.4530029297</ele>
        <time>2017-01-27T09:54:18Z</time>
      </trkpt>
      <trkpt lat="45.34639" lon="5.87992">
        <ele>1758.4530029297</ele>
        <time>2017-01-27T09:54:23Z</time>
      </trkpt>
      <trkpt lat="45.34634" lon="5.87984">
        <ele>1759.4530029297</ele>
        <time>2017-01-27T09:54:28Z</time>
      </trkpt>
      <trkpt lat="45.34631" lon="5.87972">
        <ele>1754.4530029297</ele>
        <time>2017-01-27T09:54:37Z</time>
      </trkpt>
      <trkpt lat="45.34629" lon="5.87961">
        <ele>1757.4530029297</ele>
        <time>2017-01-27T09:54:45Z</time>
      </trkpt>
      <trkpt lat="45.34626" lon="5.87951">
        <ele>1760.4530029297</ele>
        <time>2017-01-27T09:54:52Z</time>
      </trkpt>
      <trkpt lat="45.34628" lon="5.87941">
        <ele>1762.4530029297</ele>
        <time>2017-01-27T09:55:00Z</time>
      </trkpt>
      <trkpt lat="45.34631" lon="5.87931">
        <ele>1764.4530029297</ele>
        <time>2017-01-27T09:55:10Z</time>
      </trkpt>
      <trkpt lat="45.34636" lon="5.87923">
        <ele>1767.4530029297</ele>
        <time>2017-01-27T09:55:17Z</time>
      </trkpt>
      <trkpt lat="45.34642" lon="5.87916">
        <ele>1766.4530029297</ele>
        <time>2017-01-27T09:55:29Z</time>
      </trkpt>
      <trkpt lat="45.34649" lon="5.8791">
        <ele>1772.4530029297</ele>
        <time>2017-01-27T09:55:45Z</time>
      </trkpt>
      <trkpt lat="45.34654" lon="5.87902">
        <ele>1772.4530029297</ele>
        <time>2017-01-27T09:55:58Z</time>
      </trkpt>
      <trkpt lat="45.34654" lon="5.87891">
        <ele>1768.4530029297</ele>
        <time>2017-01-27T09:56:07Z</time>
      </trkpt>
      <trkpt lat="45.34656" lon="5.8788">
        <ele>1775.4530029297</ele>
        <time>2017-01-27T09:56:23Z</time>
      </trkpt>
      <trkpt lat="45.34658" lon="5.87869">
        <ele>1777.4530029297</ele>
        <time>2017-01-27T09:56:40Z</time>
      </trkpt>
      <trkpt lat="45.34658" lon="5.87858">
        <ele>1777.4530029297</ele>
        <time>2017-01-27T09:56:49Z</time>
      </trkpt>
      <trkpt lat="45.34657" lon="5.87848">
        <ele>1776.4530029297</ele>
        <time>2017-01-27T09:56:56Z</time>
      </trkpt>
      <trkpt lat="45.34656" lon="5.87837">
        <ele>1778.4530029297</ele>
        <time>2017-01-27T09:57:08Z</time>
      </trkpt>
      <trkpt lat="45.34657" lon="5.87826">
        <ele>1779.4530029297</ele>
        <time>2017-01-27T09:57:15Z</time>
      </trkpt>
      <trkpt lat="45.34653" lon="5.87816">
        <ele>1778.4530029297</ele>
        <time>2017-01-27T09:57:23Z</time>
      </trkpt>
      <trkpt lat="45.34649" lon="5.87806">
        <ele>1782.4530029297</ele>
        <time>2017-01-27T09:57:33Z</time>
      </trkpt>
      <trkpt lat="45.34652" lon="5.87796">
        <ele>1787.4530029297</ele>
        <time>2017-01-27T09:59:09Z</time>
      </trkpt>
      <trkpt lat="45.34656" lon="5.87788">
        <ele>1789.4530029297</ele>
        <time>2017-01-27T09:59:26Z</time>
      </trkpt>
      <trkpt lat="45.34663" lon="5.87781">
        <ele>1788.4530029297</ele>
        <time>2017-01-27T09:59:38Z</time>
      </trkpt>
      <trkpt lat="45.34668" lon="5.87774">
        <ele>1793.4530029297</ele>
        <time>2017-01-27T09:59:57Z</time>
      </trkpt>
      <trkpt lat="45.34675" lon="5.87768">
        <ele>1796.4530029297</ele>
        <time>2017-01-27T10:00:03Z</time>
      </trkpt>
      <trkpt lat="45.34672" lon="5.87758">
        <ele>1794.4530029297</ele>
        <time>2017-01-27T10:00:15Z</time>
      </trkpt>
      <trkpt lat="45.34665" lon="5.87754">
        <ele>1800.4530029297</ele>
        <time>2017-01-27T10:00:34Z</time>
      </trkpt>
      <trkpt lat="45.34667" lon="5.87743">
        <ele>1805.4530029297</ele>
        <time>2017-01-27T10:01:00Z</time>
      </trkpt>
      <trkpt lat="45.3466" lon="5.87737">
        <ele>1809.4530029297</ele>
        <time>2017-01-27T10:01:28Z</time>
      </trkpt>
      <trkpt lat="45.34654" lon="5.87729">
        <ele>1811.4530029297</ele>
        <time>2017-01-27T10:01:45Z</time>
      </trkpt>
      <trkpt lat="45.34648" lon="5.87724">
        <ele>1817.4530029297</ele>
        <time>2017-01-27T10:02:04Z</time>
      </trkpt>
      <trkpt lat="45.34642" lon="5.87716">
        <ele>1825.4530029297</ele>
        <time>2017-01-27T10:02:29Z</time>
      </trkpt>
      <trkpt lat="45.34637" lon="5.87709">
        <ele>1828.4530029297</ele>
        <time>2017-01-27T10:02:49Z</time>
      </trkpt>
      <trkpt lat="45.3463" lon="5.87703">
        <ele>1835.4530029297</ele>
        <time>2017-01-27T10:03:01Z</time>
      </trkpt>
      <trkpt lat="45.34623" lon="5.87697">
        <ele>1838.4530029297</ele>
        <time>2017-01-27T10:03:09Z</time>
      </trkpt>
      <trkpt lat="45.34618" lon="5.87689">
        <ele>1837.4530029297</ele>
        <time>2017-01-27T10:03:17Z</time>
      </trkpt>
      <trkpt lat="45.34613" lon="5.87682">
        <ele>1832.4530029297</ele>
        <time>2017-01-27T10:03:29Z</time>
      </trkpt>
      <trkpt lat="45.34607" lon="5.87675">
        <ele>1834.4530029297</ele>
        <time>2017-01-27T10:03:42Z</time>
      </trkpt>
      <trkpt lat="45.34601" lon="5.87666">
        <ele>1835.4530029297</ele>
        <time>2017-01-27T10:03:53Z</time>
      </trkpt>
      <trkpt lat="45.34598" lon="5.87657">
        <ele>1839.4530029297</ele>
        <time>2017-01-27T10:03:59Z</time>
      </trkpt>
      <trkpt lat="45.346" lon="5.87647">
        <ele>1843.4530029297</ele>
        <time>2017-01-27T10:04:14Z</time>
      </trkpt>
      <trkpt lat="45.34608" lon="5.87646">
        <ele>1846.4530029297</ele>
        <time>2017-01-27T10:04:25Z</time>
      </trkpt>
      <trkpt lat="45.34616" lon="5.87642">
        <ele>1846.4530029297</ele>
        <time>2017-01-27T10:04:33Z</time>
      </trkpt>
      <trkpt lat="45.34623" lon="5.87641">
        <ele>1850.4530029297</ele>
        <time>2017-01-27T10:04:43Z</time>
      </trkpt>
      <trkpt lat="45.3463" lon="5.87637">
        <ele>1847.4530029297</ele>
        <time>2017-01-27T10:04:54Z</time>
      </trkpt>
      <trkpt lat="45.34638" lon="5.87637">
        <ele>1852.4530029297</ele>
        <time>2017-01-27T10:05:01Z</time>
      </trkpt>
      <trkpt lat="45.34645" lon="5.87636">
        <ele>1856.4530029297</ele>
        <time>2017-01-27T10:05:13Z</time>
      </trkpt>
      <trkpt lat="45.34653" lon="5.87633">
        <ele>1856.4530029297</ele>
        <time>2017-01-27T10:05:24Z</time>
      </trkpt>
      <trkpt lat="45.3466" lon="5.87633">
        <ele>1859.4530029297</ele>
        <time>2017-01-27T10:05:34Z</time>
      </trkpt>
      <trkpt lat="45.34654" lon="5.87627">
        <ele>1862.4530029297</ele>
        <time>2017-01-27T10:05:47Z</time>
      </trkpt>
      <trkpt lat="45.34647" lon="5.87621">
        <ele>1862.4530029297</ele>
        <time>2017-01-27T10:05:59Z</time>
      </trkpt>
      <trkpt lat="45.3464" lon="5.87615">
        <ele>1865.4530029297</ele>
        <time>2017-01-27T10:06:10Z</time>
      </trkpt>
      <trkpt lat="45.34633" lon="5.87612">
        <ele>1867.4530029297</ele>
        <time>2017-01-27T10:06:20Z</time>
      </trkpt>
      <trkpt lat="45.3463" lon="5.87602">
        <ele>1870.4530029297</ele>
        <time>2017-01-27T10:06:44Z</time>
      </trkpt>
      <trkpt lat="45.34637" lon="5.87597">
        <ele>1872.4530029297</ele>
        <time>2017-01-27T10:07:00Z</time>
      </trkpt>
      <trkpt lat="45.34644" lon="5.8759">
        <ele>1865.4530029297</ele>
        <time>2017-01-27T10:07:09Z</time>
      </trkpt>
      <trkpt lat="45.34651" lon="5.87589">
        <ele>1871.4530029297</ele>
        <time>2017-01-27T10:08:11Z</time>
      </trkpt>
      <trkpt lat="45.34659" lon="5.87588">
        <ele>1873.4530029297</ele>
        <time>2017-01-27T10:08:17Z</time>
      </trkpt>
      <trkpt lat="45.34667" lon="5.87588">
        <ele>1875.4530029297</ele>
        <time>2017-01-27T10:08:25Z</time>
      </trkpt>
      <trkpt lat="45.34662" lon="5.87579">
        <ele>1876.4530029297</ele>
        <time>2017-01-27T10:08:45Z</time>
      </trkpt>
      <trkpt lat="45.34656" lon="5.87572">
        <ele>1876.4530029297</ele>
        <time>2017-01-27T10:08:52Z</time>
      </trkpt>
      <trkpt lat="45.34648" lon="5.8757">
        <ele>1876.4530029297</ele>
        <time>2017-01-27T10:09:08Z</time>
      </trkpt>
      <trkpt lat="45.34641" lon="5.87568">
        <ele>1884.4530029297</ele>
        <time>2017-01-27T10:09:16Z</time>
      </trkpt>
      <trkpt lat="45.34641" lon="5.87557">
        <ele>1887.4530029297</ele>
        <time>2017-01-27T10:09:46Z</time>
      </trkpt>
      <trkpt lat="45.34648" lon="5.87555">
        <ele>1891.4530029297</ele>
        <time>2017-01-27T10:09:59Z</time>
      </trkpt>
      <trkpt lat="45.34656" lon="5.87551">
        <ele>1893.4530029297</ele>
        <time>2017-01-27T10:10:12Z</time>
      </trkpt>
      <trkpt lat="45.34664" lon="5.87549">
        <ele>1894.4530029297</ele>
        <time>2017-01-27T10:10:23Z</time>
      </trkpt>
      <trkpt lat="45.34671" lon="5.8755">
        <ele>1897.4530029297</ele>
        <time>2017-01-27T10:10:32Z</time>
      </trkpt>
      <trkpt lat="45.34679" lon="5.87551">
        <ele>1899.4530029297</ele>
        <time>2017-01-27T10:10:45Z</time>
      </trkpt>
      <trkpt lat="45.34687" lon="5.87552">
        <ele>1901.4530029297</ele>
        <time>2017-01-27T10:10:58Z</time>
      </trkpt>
      <trkpt lat="45.34682" lon="5.87544">
        <ele>1910.4530029297</ele>
        <time>2017-01-27T10:11:28Z</time>
      </trkpt>
      <trkpt lat="45.34678" lon="5.87535">
        <ele>1911.4530029297</ele>
        <time>2017-01-27T10:11:39Z</time>
      </trkpt>
      <trkpt lat="45.34676" lon="5.87525">
        <ele>1909.4530029297</ele>
        <time>2017-01-27T10:11:48Z</time>
      </trkpt>
      <trkpt lat="45.34669" lon="5.87519">
        <ele>1914.4530029297</ele>
        <time>2017-01-27T10:11:58Z</time>
      </trkpt>
      <trkpt lat="45.34665" lon="5.87511">
        <ele>1912.4530029297</ele>
        <time>2017-01-27T10:12:08Z</time>
      </trkpt>
      <trkpt lat="45.34658" lon="5.87507">
        <ele>1915.4530029297</ele>
        <time>2017-01-27T10:12:21Z</time>
      </trkpt>
      <trkpt lat="45.34651" lon="5.87506">
        <ele>1916.4530029297</ele>
        <time>2017-01-27T10:12:33Z</time>
      </trkpt>
      <trkpt lat="45.34644" lon="5.875">
        <ele>1919.4530029297</ele>
        <time>2017-01-27T10:12:57Z</time>
      </trkpt>
      <trkpt lat="45.34637" lon="5.875">
        <ele>1923.4530029297</ele>
        <time>2017-01-27T10:13:33Z</time>
      </trkpt>
      <trkpt lat="45.3463" lon="5.87496">
        <ele>1923.4530029297</ele>
        <time>2017-01-27T10:13:43Z</time>
      </trkpt>
      <trkpt lat="45.34633" lon="5.87484">
        <ele>1928.4530029297</ele>
        <time>2017-01-27T10:14:18Z</time>
      </trkpt>
      <trkpt lat="45.34639" lon="5.87479">
        <ele>1925.4530029297</ele>
        <time>2017-01-27T10:14:26Z</time>
      </trkpt>
      <trkpt lat="45.34644" lon="5.87471">
        <ele>1927.4530029297</ele>
        <time>2017-01-27T10:14:35Z</time>
      </trkpt>
      <trkpt lat="45.34636" lon="5.87469">
        <ele>1931.4530029297</ele>
        <time>2017-01-27T10:14:55Z</time>
      </trkpt>
      <trkpt lat="45.34629" lon="5.87471">
        <ele>1933.4530029297</ele>
        <time>2017-01-27T10:15:18Z</time>
      </trkpt>
      <trkpt lat="45.34635" lon="5.87464">
        <ele>1942.4530029297</ele>
        <time>2017-01-27T10:15:44Z</time>
      </trkpt>
      <trkpt lat="45.34629" lon="5.8746">
        <ele>1951.4530029297</ele>
        <time>2017-01-27T10:16:16Z</time>
      </trkpt>
      <trkpt lat="45.34621" lon="5.87462">
        <ele>1955.4530029297</ele>
        <time>2017-01-27T10:16:30Z</time>
      </trkpt>
      <trkpt lat="45.34613" lon="5.87462">
        <ele>1958.4530029297</ele>
        <time>2017-01-27T10:16:38Z</time>
      </trkpt>
      <trkpt lat="45.34616" lon="5.87452">
        <ele>1959.4530029297</ele>
        <time>2017-01-27T10:17:05Z</time>
      </trkpt>
      <trkpt lat="45.3461" lon="5.87447">
        <ele>1963.4530029297</ele>
        <time>2017-01-27T10:17:45Z</time>
      </trkpt>
      <trkpt lat="45.34614" lon="5.87437">
        <ele>1967.4530029297</ele>
        <time>2017-01-27T10:17:59Z</time>
      </trkpt>
      <trkpt lat="45.34617" lon="5.87427">
        <ele>1967.4530029297</ele>
        <time>2017-01-27T10:18:11Z</time>
      </trkpt>
      <trkpt lat="45.34624" lon="5.87423">
        <ele>1970.4530029297</ele>
        <time>2017-01-27T10:18:37Z</time>
      </trkpt>
      <trkpt lat="45.34631" lon="5.87422">
        <ele>1973.4530029297</ele>
        <time>2017-01-27T10:18:51Z</time>
      </trkpt>
      <trkpt lat="45.3463" lon="5.8741">
        <ele>1977.4530029297</ele>
        <time>2017-01-27T10:19:15Z</time>
      </trkpt>
      <trkpt lat="45.34637" lon="5.87405">
        <ele>1983.4530029297</ele>
        <time>2017-01-27T10:19:40Z</time>
      </trkpt>
      <trkpt lat="45.34634" lon="5.87395">
        <ele>1986.4530029297</ele>
        <time>2017-01-27T10:20:04Z</time>
      </trkpt>
      <trkpt lat="45.34626" lon="5.87394">
        <ele>1992.4530029297</ele>
        <time>2017-01-27T10:20:13Z</time>
      </trkpt>
      <trkpt lat="45.3462" lon="5.87387">
        <ele>1986.4530029297</ele>
        <time>2017-01-27T10:20:22Z</time>
      </trkpt>
      <trkpt lat="45.34613" lon="5.87384">
        <ele>1989.4520263672</ele>
        <time>2017-01-27T10:20:36Z</time>
      </trkpt>
      <trkpt lat="45.34606" lon="5.87393">
        <ele>1995.4520263672</ele>
        <time>2017-01-27T10:20:48Z</time>
      </trkpt>
      <trkpt lat="45.34606" lon="5.87404">
        <ele>1995.4520263672</ele>
        <time>2017-01-27T10:20:55Z</time>
      </trkpt>
      <trkpt lat="45.34605" lon="5.87394">
        <ele>2000.4520263672</ele>
        <time>2017-01-27T10:21:09Z</time>
      </trkpt>
      <trkpt lat="45.34607" lon="5.87382">
        <ele>1996.4520263672</ele>
        <time>2017-01-27T10:21:55Z</time>
      </trkpt>
      <trkpt lat="45.3461" lon="5.87373">
        <ele>1999.4520263672</ele>
        <time>2017-01-27T10:23:10Z</time>
      </trkpt>
      <trkpt lat="45.34615" lon="5.87365">
        <ele>2011.4520263672</ele>
        <time>2017-01-27T10:23:38Z</time>
      </trkpt>
      <trkpt lat="45.3461" lon="5.87358">
        <ele>2012.4520263672</ele>
        <time>2017-01-27T10:24:13Z</time>
      </trkpt>
      <trkpt lat="45.3461" lon="5.87348">
        <ele>2018.4520263672</ele>
        <time>2017-01-27T10:24:44Z</time>
      </trkpt>
      <trkpt lat="45.34611" lon="5.87337">
        <ele>2018.4520263672</ele>
        <time>2017-01-27T10:24:58Z</time>
      </trkpt>
      <trkpt lat="45.34619" lon="5.87337">
        <ele>2019.4520263672</ele>
        <time>2017-01-27T10:25:15Z</time>
      </trkpt>
      <trkpt lat="45.34624" lon="5.87329">
        <ele>2026.4520263672</ele>
        <time>2017-01-27T10:25:40Z</time>
      </trkpt>
      <trkpt lat="45.34629" lon="5.87321">
        <ele>2034.4520263672</ele>
        <time>2017-01-27T10:26:12Z</time>
      </trkpt>
      <trkpt lat="45.34634" lon="5.87314">
        <ele>2040.4520263672</ele>
        <time>2017-01-27T10:26:32Z</time>
      </trkpt>
      <trkpt lat="45.3464" lon="5.87308">
        <ele>2044.4520263672</ele>
        <time>2017-01-27T10:27:05Z</time>
      </trkpt>
      <trkpt lat="45.34649" lon="5.87305">
        <ele>2048.4519042969</ele>
        <time>2017-01-27T10:27:23Z</time>
      </trkpt>
      <trkpt lat="45.34643" lon="5.87312">
        <ele>2045.4520263672</ele>
        <time>2017-01-27T10:29:55Z</time>
      </trkpt>
      <trkpt lat="45.34643" lon="5.87322">
        <ele>2042.4520263672</ele>
        <time>2017-01-27T10:31:49Z</time>
      </trkpt>
      <trkpt lat="45.3465" lon="5.87328">
        <ele>2039.4520263672</ele>
        <time>2017-01-27T10:32:05Z</time>
      </trkpt>
      <trkpt lat="45.34652" lon="5.87341">
        <ele>2029.4530029297</ele>
        <time>2017-01-27T10:32:35Z</time>
      </trkpt>
      <trkpt lat="45.34646" lon="5.87348">
        <ele>2025.4530029297</ele>
        <time>2017-01-27T10:33:03Z</time>
      </trkpt>
      <trkpt lat="45.34642" lon="5.87359">
        <ele>2017.4530029297</ele>
        <time>2017-01-27T10:33:26Z</time>
      </trkpt>
      <trkpt lat="45.34635" lon="5.87364">
        <ele>2014.4530029297</ele>
        <time>2017-01-27T10:33:32Z</time>
      </trkpt>
      <trkpt lat="45.34628" lon="5.87368">
        <ele>2014.4520263672</ele>
        <time>2017-01-27T10:34:23Z</time>
      </trkpt>
      <trkpt lat="45.3462" lon="5.87369">
        <ele>2014.4520263672</ele>
        <time>2017-01-27T10:36:51Z</time>
      </trkpt>
      <trkpt lat="45.34611" lon="5.8738">
        <ele>2008.4520263672</ele>
        <time>2017-01-27T10:37:02Z</time>
      </trkpt>
      <trkpt lat="45.34597" lon="5.87394">
        <ele>2003.4520263672</ele>
        <time>2017-01-27T10:37:47Z</time>
      </trkpt>
      <trkpt lat="45.34584" lon="5.87404">
        <ele>1999.4520263672</ele>
        <time>2017-01-27T10:37:52Z</time>
      </trkpt>
      <trkpt lat="45.34586" lon="5.8743">
        <ele>1995.4520263672</ele>
        <time>2017-01-27T10:37:58Z</time>
      </trkpt>
      <trkpt lat="45.34573" lon="5.87441">
        <ele>1986.4520263672</ele>
        <time>2017-01-27T10:38:08Z</time>
      </trkpt>
      <trkpt lat="45.34559" lon="5.87455">
        <ele>1973.4520263672</ele>
        <time>2017-01-27T10:38:16Z</time>
      </trkpt>
      <trkpt lat="45.34555" lon="5.87465">
        <ele>1966.4520263672</ele>
        <time>2017-01-27T10:38:21Z</time>
      </trkpt>
      <trkpt lat="45.34548" lon="5.87485">
        <ele>1964.4520263672</ele>
        <time>2017-01-27T10:38:28Z</time>
      </trkpt>
      <trkpt lat="45.34543" lon="5.87494">
        <ele>1964.4520263672</ele>
        <time>2017-01-27T10:38:32Z</time>
      </trkpt>
      <trkpt lat="45.34533" lon="5.8752">
        <ele>1956.4530029297</ele>
        <time>2017-01-27T10:38:40Z</time>
      </trkpt>
      <trkpt lat="45.34542" lon="5.87516">
        <ele>1945.4530029297</ele>
        <time>2017-01-27T10:38:49Z</time>
      </trkpt>
      <trkpt lat="45.34536" lon="5.87523">
        <ele>1935.4530029297</ele>
        <time>2017-01-27T10:39:03Z</time>
      </trkpt>
      <trkpt lat="45.34531" lon="5.87534">
        <ele>1927.4530029297</ele>
        <time>2017-01-27T10:39:29Z</time>
      </trkpt>
      <trkpt lat="45.34525" lon="5.87538">
        <ele>1921.4530029297</ele>
        <time>2017-01-27T10:39:35Z</time>
      </trkpt>
      <trkpt lat="45.34516" lon="5.87563">
        <ele>1917.4530029297</ele>
        <time>2017-01-27T10:39:44Z</time>
      </trkpt>
      <trkpt lat="45.34506" lon="5.87567">
        <ele>1912.4530029297</ele>
        <time>2017-01-27T10:40:02Z</time>
      </trkpt>
      <trkpt lat="45.34505" lon="5.87584">
        <ele>1905.4530029297</ele>
        <time>2017-01-27T10:40:15Z</time>
      </trkpt>
      <trkpt lat="45.34499" lon="5.87587">
        <ele>1881.4530029297</ele>
        <time>2017-01-27T10:40:41Z</time>
      </trkpt>
      <trkpt lat="45.34494" lon="5.87595">
        <ele>1872.4530029297</ele>
        <time>2017-01-27T10:40:50Z</time>
      </trkpt>
      <trkpt lat="45.34486" lon="5.87592">
        <ele>1867.4530029297</ele>
        <time>2017-01-27T10:42:23Z</time>
      </trkpt>
      <trkpt lat="45.34474" lon="5.87596">
        <ele>1863.4520263672</ele>
        <time>2017-01-27T10:42:25Z</time>
      </trkpt>
      <trkpt lat="45.34466" lon="5.87597">
        <ele>1861.4520263672</ele>
        <time>2017-01-27T10:42:27Z</time>
      </trkpt>
      <trkpt lat="45.34458" lon="5.87601">
        <ele>1857.4520263672</ele>
        <time>2017-01-27T10:42:31Z</time>
      </trkpt>
      <trkpt lat="45.34437" lon="5.87615">
        <ele>1853.4520263672</ele>
        <time>2017-01-27T10:42:37Z</time>
      </trkpt>
      <trkpt lat="45.34435" lon="5.87626">
        <ele>1850.4520263672</ele>
        <time>2017-01-27T10:42:54Z</time>
      </trkpt>
      <trkpt lat="45.34434" lon="5.87641">
        <ele>1845.4520263672</ele>
        <time>2017-01-27T10:42:56Z</time>
      </trkpt>
      <trkpt lat="45.34432" lon="5.87691">
        <ele>1840.4530029297</ele>
        <time>2017-01-27T10:43:01Z</time>
      </trkpt>
      <trkpt lat="45.34436" lon="5.87701">
        <ele>1839.4530029297</ele>
        <time>2017-01-27T10:43:02Z</time>
      </trkpt>
      <trkpt lat="45.34438" lon="5.87725">
        <ele>1821.4530029297</ele>
        <time>2017-01-27T10:43:07Z</time>
      </trkpt>
      <trkpt lat="45.34445" lon="5.87754">
        <ele>1810.4530029297</ele>
        <time>2017-01-27T10:43:11Z</time>
      </trkpt>
      <trkpt lat="45.3445" lon="5.87807">
        <ele>1799.4530029297</ele>
        <time>2017-01-27T10:43:17Z</time>
      </trkpt>
      <trkpt lat="45.34451" lon="5.87839">
        <ele>1796.4530029297</ele>
        <time>2017-01-27T10:43:21Z</time>
      </trkpt>
      <trkpt lat="45.34451" lon="5.8786">
        <ele>1790.4530029297</ele>
        <time>2017-01-27T10:43:29Z</time>
      </trkpt>
      <trkpt lat="45.34454" lon="5.87869">
        <ele>1785.4530029297</ele>
        <time>2017-01-27T10:43:36Z</time>
      </trkpt>
      <trkpt lat="45.34464" lon="5.87887">
        <ele>1779.4530029297</ele>
        <time>2017-01-27T10:43:53Z</time>
      </trkpt>
      <trkpt lat="45.3447" lon="5.87894">
        <ele>1779.4530029297</ele>
        <time>2017-01-27T10:44:07Z</time>
      </trkpt>
      <trkpt lat="45.34475" lon="5.879">
        <ele>1781.4530029297</ele>
        <time>2017-01-27T10:44:22Z</time>
      </trkpt>
      <trkpt lat="45.34482" lon="5.87906">
        <ele>1783.4530029297</ele>
        <time>2017-01-27T10:44:35Z</time>
      </trkpt>
      <trkpt lat="45.34485" lon="5.87916">
        <ele>1785.4530029297</ele>
        <time>2017-01-27T10:44:46Z</time>
      </trkpt>
      <trkpt lat="45.34489" lon="5.87924">
        <ele>1777.4530029297</ele>
        <time>2017-01-27T10:45:12Z</time>
      </trkpt>
      <trkpt lat="45.34495" lon="5.87931">
        <ele>1781.4530029297</ele>
        <time>2017-01-27T10:45:21Z</time>
      </trkpt>
      <trkpt lat="45.34503" lon="5.87941">
        <ele>1781.4530029297</ele>
        <time>2017-01-27T10:45:26Z</time>
      </trkpt>
      <trkpt lat="45.34514" lon="5.87956">
        <ele>1781.4530029297</ele>
        <time>2017-01-27T10:45:32Z</time>
      </trkpt>
      <trkpt lat="45.34533" lon="5.87968">
        <ele>1776.4530029297</ele>
        <time>2017-01-27T10:45:37Z</time>
      </trkpt>
      <trkpt lat="45.34568" lon="5.87984">
        <ele>1769.4530029297</ele>
        <time>2017-01-27T10:45:43Z</time>
      </trkpt>
      <trkpt lat="45.34579" lon="5.87988">
        <ele>1765.4530029297</ele>
        <time>2017-01-27T10:45:45Z</time>
      </trkpt>
      <trkpt lat="45.34614" lon="5.88002">
        <ele>1759.4530029297</ele>
        <time>2017-01-27T10:45:51Z</time>
      </trkpt>
      <trkpt lat="45.34636" lon="5.8802">
        <ele>1760.4530029297</ele>
        <time>2017-01-27T10:45:57Z</time>
      </trkpt>
      <trkpt lat="45.34662" lon="5.88042">
        <ele>1755.4530029297</ele>
        <time>2017-01-27T10:46:03Z</time>
      </trkpt>
      <trkpt lat="45.34701" lon="5.88056">
        <ele>1748.4539794922</ele>
        <time>2017-01-27T10:46:09Z</time>
      </trkpt>
      <trkpt lat="45.34728" lon="5.88087">
        <ele>1741.4539794922</ele>
        <time>2017-01-27T10:46:14Z</time>
      </trkpt>
      <trkpt lat="45.34744" lon="5.88124">
        <ele>1741.4539794922</ele>
        <time>2017-01-27T10:46:36Z</time>
      </trkpt>
      <trkpt lat="45.34751" lon="5.88131">
        <ele>1744.4539794922</ele>
        <time>2017-01-27T10:47:03Z</time>
      </trkpt>
      <trkpt lat="45.34759" lon="5.8815">
        <ele>1739.4539794922</ele>
        <time>2017-01-27T10:47:08Z</time>
      </trkpt>
      <trkpt lat="45.34764" lon="5.8816">
        <ele>1739.4539794922</ele>
        <time>2017-01-27T10:47:23Z</time>
      </trkpt>
      <trkpt lat="45.34769" lon="5.8818">
        <ele>1739.4539794922</ele>
        <time>2017-01-27T10:47:35Z</time>
      </trkpt>
      <trkpt lat="45.34775" lon="5.88186">
        <ele>1741.4539794922</ele>
        <time>2017-01-27T10:47:48Z</time>
      </trkpt>
      <trkpt lat="45.34781" lon="5.88194">
        <ele>1741.4539794922</ele>
        <time>2017-01-27T10:48:02Z</time>
      </trkpt>
      <trkpt lat="45.34783" lon="5.88205">
        <ele>1743.4539794922</ele>
        <time>2017-01-27T10:48:12Z</time>
      </trkpt>
      <trkpt lat="45.34788" lon="5.88213">
        <ele>1747.4539794922</ele>
        <time>2017-01-27T10:48:21Z</time>
      </trkpt>
      <trkpt lat="45.34795" lon="5.8822">
        <ele>1746.4539794922</ele>
        <time>2017-01-27T10:48:28Z</time>
      </trkpt>
      <trkpt lat="45.34808" lon="5.88229">
        <ele>1744.4539794922</ele>
        <time>2017-01-27T10:48:41Z</time>
      </trkpt>
      <trkpt lat="45.34811" lon="5.88238">
        <ele>1743.4539794922</ele>
        <time>2017-01-27T10:48:53Z</time>
      </trkpt>
      <trkpt lat="45.34809" lon="5.88248">
        <ele>1745.4539794922</ele>
        <time>2017-01-27T10:49:17Z</time>
      </trkpt>
      <trkpt lat="45.34807" lon="5.88259">
        <ele>1743.4539794922</ele>
        <time>2017-01-27T10:49:22Z</time>
      </trkpt>
      <trkpt lat="45.34807" lon="5.88273">
        <ele>1742.4539794922</ele>
        <time>2017-01-27T10:49:25Z</time>
      </trkpt>
      <trkpt lat="45.34807" lon="5.88294">
        <ele>1741.4539794922</ele>
        <time>2017-01-27T10:49:30Z</time>
      </trkpt>
      <trkpt lat="45.34839" lon="5.88316">
        <ele>1739.4539794922</ele>
        <time>2017-01-27T10:49:36Z</time>
      </trkpt>
      <trkpt lat="45.34853" lon="5.8833">
        <ele>1738.4539794922</ele>
        <time>2017-01-27T10:49:42Z</time>
      </trkpt>
      <trkpt lat="45.34858" lon="5.88338">
        <ele>1738.4539794922</ele>
        <time>2017-01-27T10:49:51Z</time>
      </trkpt>
      <trkpt lat="45.34867" lon="5.88339">
        <ele>1738.4539794922</ele>
        <time>2017-01-27T10:49:59Z</time>
      </trkpt>
      <trkpt lat="45.34874" lon="5.88341">
        <ele>1737.4539794922</ele>
        <time>2017-01-27T10:50:07Z</time>
      </trkpt>
      <trkpt lat="45.34883" lon="5.88347">
        <ele>1737.4539794922</ele>
        <time>2017-01-27T10:50:13Z</time>
      </trkpt>
      <trkpt lat="45.3489" lon="5.88351">
        <ele>1736.4539794922</ele>
        <time>2017-01-27T10:50:23Z</time>
      </trkpt>
      <trkpt lat="45.34897" lon="5.88354">
        <ele>1737.4539794922</ele>
        <time>2017-01-27T10:50:28Z</time>
      </trkpt>
      <trkpt lat="45.34905" lon="5.88358">
        <ele>1736.4539794922</ele>
        <time>2017-01-27T10:50:33Z</time>
      </trkpt>
      <trkpt lat="45.34911" lon="5.88362">
        <ele>1739.4539794922</ele>
        <time>2017-01-27T10:50:47Z</time>
      </trkpt>
      <trkpt lat="45.34918" lon="5.88366">
        <ele>1739.4539794922</ele>
        <time>2017-01-27T10:51:02Z</time>
      </trkpt>
      <trkpt lat="45.34926" lon="5.88364">
        <ele>1736.4539794922</ele>
        <time>2017-01-27T10:51:08Z</time>
      </trkpt>
      <trkpt lat="45.34934" lon="5.88365">
        <ele>1740.4539794922</ele>
        <time>2017-01-27T10:51:20Z</time>
      </trkpt>
      <trkpt lat="45.34943" lon="5.8837">
        <ele>1739.4539794922</ele>
        <time>2017-01-27T10:51:26Z</time>
      </trkpt>
      <trkpt lat="45.34959" lon="5.88382">
        <ele>1739.4549560547</ele>
        <time>2017-01-27T10:51:32Z</time>
      </trkpt>
      <trkpt lat="45.34967" lon="5.88381">
        <ele>1739.4549560547</ele>
        <time>2017-01-27T10:51:37Z</time>
      </trkpt>
      <trkpt lat="45.34972" lon="5.88389">
        <ele>1742.4549560547</ele>
        <time>2017-01-27T10:51:44Z</time>
      </trkpt>
      <trkpt lat="45.34979" lon="5.88394">
        <ele>1742.4549560547</ele>
        <time>2017-01-27T10:52:07Z</time>
      </trkpt>
      <trkpt lat="45.34989" lon="5.88397">
        <ele>1740.4549560547</ele>
        <time>2017-01-27T10:52:16Z</time>
      </trkpt>
      <trkpt lat="45.35008" lon="5.88403">
        <ele>1738.4549560547</ele>
        <time>2017-01-27T10:52:22Z</time>
      </trkpt>
      <trkpt lat="45.35019" lon="5.88422">
        <ele>1737.4549560547</ele>
        <time>2017-01-27T10:52:29Z</time>
      </trkpt>
      <trkpt lat="45.35032" lon="5.88432">
        <ele>1742.4549560547</ele>
        <time>2017-01-27T10:52:52Z</time>
      </trkpt>
      <trkpt lat="45.35039" lon="5.88434">
        <ele>1745.4549560547</ele>
        <time>2017-01-27T10:53:06Z</time>
      </trkpt>
      <trkpt lat="45.35048" lon="5.88435">
        <ele>1742.4549560547</ele>
        <time>2017-01-27T10:53:26Z</time>
      </trkpt>
      <trkpt lat="45.35056" lon="5.88433">
        <ele>1743.4549560547</ele>
        <time>2017-01-27T10:53:46Z</time>
      </trkpt>
      <trkpt lat="45.35064" lon="5.88431">
        <ele>1746.4549560547</ele>
        <time>2017-01-27T10:54:15Z</time>
      </trkpt>
      <trkpt lat="45.35069" lon="5.88438">
        <ele>1748.4549560547</ele>
        <time>2017-01-27T10:54:23Z</time>
      </trkpt>
      <trkpt lat="45.35076" lon="5.88442">
        <ele>1749.4549560547</ele>
        <time>2017-01-27T10:54:31Z</time>
      </trkpt>
      <trkpt lat="45.35082" lon="5.88449">
        <ele>1748.4549560547</ele>
        <time>2017-01-27T10:54:50Z</time>
      </trkpt>
      <trkpt lat="45.35088" lon="5.88456">
        <ele>1747.4549560547</ele>
        <time>2017-01-27T10:54:56Z</time>
      </trkpt>
      <trkpt lat="45.35101" lon="5.88499">
        <ele>1739.4549560547</ele>
        <time>2017-01-27T10:55:02Z</time>
      </trkpt>
      <trkpt lat="45.35102" lon="5.88544">
        <ele>1736.4549560547</ele>
        <time>2017-01-27T10:55:08Z</time>
      </trkpt>
      <trkpt lat="45.35121" lon="5.88579">
        <ele>1735.4549560547</ele>
        <time>2017-01-27T10:55:14Z</time>
      </trkpt>
      <trkpt lat="45.35135" lon="5.88597">
        <ele>1737.4549560547</ele>
        <time>2017-01-27T10:55:19Z</time>
      </trkpt>
      <trkpt lat="45.35148" lon="5.88614">
        <ele>1735.4549560547</ele>
        <time>2017-01-27T10:55:24Z</time>
      </trkpt>
      <trkpt lat="45.35166" lon="5.88639">
        <ele>1731.4549560547</ele>
        <time>2017-01-27T10:55:30Z</time>
      </trkpt>
      <trkpt lat="45.35177" lon="5.88658">
        <ele>1730.4549560547</ele>
        <time>2017-01-27T10:55:36Z</time>
      </trkpt>
      <trkpt lat="45.35189" lon="5.88672">
        <ele>1730.4549560547</ele>
        <time>2017-01-27T10:55:46Z</time>
      </trkpt>
      <trkpt lat="45.35196" lon="5.88679">
        <ele>1732.4549560547</ele>
        <time>2017-01-27T10:56:05Z</time>
      </trkpt>
      <trkpt lat="45.35199" lon="5.88688">
        <ele>1734.4549560547</ele>
        <time>2017-01-27T10:56:16Z</time>
      </trkpt>
      <trkpt lat="45.35212" lon="5.88704">
        <ele>1734.4549560547</ele>
        <time>2017-01-27T10:56:24Z</time>
      </trkpt>
      <trkpt lat="45.35225" lon="5.8872">
        <ele>1733.4560546875</ele>
        <time>2017-01-27T10:56:32Z</time>
      </trkpt>
      <trkpt lat="45.35231" lon="5.88728">
        <ele>1734.4560546875</ele>
        <time>2017-01-27T10:56:37Z</time>
      </trkpt>
      <trkpt lat="45.35238" lon="5.8874">
        <ele>1734.4560546875</ele>
        <time>2017-01-27T10:56:44Z</time>
      </trkpt>
      <trkpt lat="45.35256" lon="5.88763">
        <ele>1733.4560546875</ele>
        <time>2017-01-27T10:56:48Z</time>
      </trkpt>
      <trkpt lat="45.3527" lon="5.88765">
        <ele>1735.4560546875</ele>
        <time>2017-01-27T10:57:02Z</time>
      </trkpt>
      <trkpt lat="45.35277" lon="5.88771">
        <ele>1737.4560546875</ele>
        <time>2017-01-27T10:57:16Z</time>
      </trkpt>
      <trkpt lat="45.35291" lon="5.88785">
        <ele>1735.4560546875</ele>
        <time>2017-01-27T10:57:24Z</time>
      </trkpt>
      <trkpt lat="45.35302" lon="5.88801">
        <ele>1734.4560546875</ele>
        <time>2017-01-27T10:57:31Z</time>
      </trkpt>
      <trkpt lat="45.35316" lon="5.88813">
        <ele>1734.4560546875</ele>
        <time>2017-01-27T10:57:36Z</time>
      </trkpt>
      <trkpt lat="45.35323" lon="5.88821">
        <ele>1734.4560546875</ele>
        <time>2017-01-27T10:57:39Z</time>
      </trkpt>
      <trkpt lat="45.35337" lon="5.88834">
        <ele>1734.4560546875</ele>
        <time>2017-01-27T10:57:45Z</time>
      </trkpt>
      <trkpt lat="45.35343" lon="5.88844">
        <ele>1733.4560546875</ele>
        <time>2017-01-27T10:57:49Z</time>
      </trkpt>
      <trkpt lat="45.35349" lon="5.8885">
        <ele>1733.4560546875</ele>
        <time>2017-01-27T10:59:03Z</time>
      </trkpt>
      <trkpt lat="45.35352" lon="5.8886">
        <ele>1730.4560546875</ele>
        <time>2017-01-27T11:02:40Z</time>
      </trkpt>
      <trkpt lat="45.35356" lon="5.8887">
        <ele>1729.4560546875</ele>
        <time>2017-01-27T11:02:45Z</time>
      </trkpt>
      <trkpt lat="45.3536" lon="5.88879">
        <ele>1729.4560546875</ele>
        <time>2017-01-27T11:02:51Z</time>
      </trkpt>
      <trkpt lat="45.35364" lon="5.88888">
        <ele>1729.4560546875</ele>
        <time>2017-01-27T11:02:57Z</time>
      </trkpt>
      <trkpt lat="45.3537" lon="5.88897">
        <ele>1732.4560546875</ele>
        <time>2017-01-27T11:03:03Z</time>
      </trkpt>
      <trkpt lat="45.35373" lon="5.88906">
        <ele>1733.4560546875</ele>
        <time>2017-01-27T11:03:07Z</time>
      </trkpt>
      <trkpt lat="45.35379" lon="5.88915">
        <ele>1734.4560546875</ele>
        <time>2017-01-27T11:03:24Z</time>
      </trkpt>
      <trkpt lat="45.35384" lon="5.88925">
        <ele>1735.4560546875</ele>
        <time>2017-01-27T11:03:32Z</time>
      </trkpt>
      <trkpt lat="45.35388" lon="5.88933">
        <ele>1735.4560546875</ele>
        <time>2017-01-27T11:03:39Z</time>
      </trkpt>
      <trkpt lat="45.35389" lon="5.88944">
        <ele>1736.4560546875</ele>
        <time>2017-01-27T11:03:44Z</time>
      </trkpt>
      <trkpt lat="45.35393" lon="5.88954">
        <ele>1737.4560546875</ele>
        <time>2017-01-27T11:03:50Z</time>
      </trkpt>
      <trkpt lat="45.35396" lon="5.88964">
        <ele>1738.4560546875</ele>
        <time>2017-01-27T11:03:58Z</time>
      </trkpt>
      <trkpt lat="45.35398" lon="5.88973">
        <ele>1740.4560546875</ele>
        <time>2017-01-27T11:04:04Z</time>
      </trkpt>
      <trkpt lat="45.35401" lon="5.88985">
        <ele>1742.4560546875</ele>
        <time>2017-01-27T11:04:10Z</time>
      </trkpt>
      <trkpt lat="45.35403" lon="5.88996">
        <ele>1742.4560546875</ele>
        <time>2017-01-27T11:04:17Z</time>
      </trkpt>
      <trkpt lat="45.35406" lon="5.89016">
        <ele>1742.4560546875</ele>
        <time>2017-01-27T11:04:27Z</time>
      </trkpt>
      <trkpt lat="45.35412" lon="5.89037">
        <ele>1742.4560546875</ele>
        <time>2017-01-27T11:04:37Z</time>
      </trkpt>
      <trkpt lat="45.35416" lon="5.89047">
        <ele>1741.4560546875</ele>
        <time>2017-01-27T11:04:47Z</time>
      </trkpt>
      <trkpt lat="45.35423" lon="5.89055">
        <ele>1743.4560546875</ele>
        <time>2017-01-27T11:04:54Z</time>
      </trkpt>
      <trkpt lat="45.35428" lon="5.89064">
        <ele>1745.4560546875</ele>
        <time>2017-01-27T11:05:01Z</time>
      </trkpt>
      <trkpt lat="45.35433" lon="5.89074">
        <ele>1748.4560546875</ele>
        <time>2017-01-27T11:05:07Z</time>
      </trkpt>
      <trkpt lat="45.35439" lon="5.8908">
        <ele>1747.4560546875</ele>
        <time>2017-01-27T11:05:22Z</time>
      </trkpt>
      <trkpt lat="45.35445" lon="5.89088">
        <ele>1741.4560546875</ele>
        <time>2017-01-27T11:05:43Z</time>
      </trkpt>
      <trkpt lat="45.35451" lon="5.89094">
        <ele>1742.4560546875</ele>
        <time>2017-01-27T11:05:50Z</time>
      </trkpt>
      <trkpt lat="45.35458" lon="5.89099">
        <ele>1744.4560546875</ele>
        <time>2017-01-27T11:05:58Z</time>
      </trkpt>
      <trkpt lat="45.35466" lon="5.89102">
        <ele>1746.45703125</ele>
        <time>2017-01-27T11:06:06Z</time>
      </trkpt>
      <trkpt lat="45.35471" lon="5.8911">
        <ele>1750.45703125</ele>
        <time>2017-01-27T11:06:15Z</time>
      </trkpt>
      <trkpt lat="45.35477" lon="5.89116">
        <ele>1754.45703125</ele>
        <time>2017-01-27T11:06:23Z</time>
      </trkpt>
      <trkpt lat="45.35485" lon="5.89118">
        <ele>1759.45703125</ele>
        <time>2017-01-27T11:06:30Z</time>
      </trkpt>
      <trkpt lat="45.35491" lon="5.89125">
        <ele>1759.45703125</ele>
        <time>2017-01-27T11:06:37Z</time>
      </trkpt>
      <trkpt lat="45.35499" lon="5.89131">
        <ele>1760.45703125</ele>
        <time>2017-01-27T11:06:45Z</time>
      </trkpt>
      <trkpt lat="45.35504" lon="5.89139">
        <ele>1759.45703125</ele>
        <time>2017-01-27T11:06:52Z</time>
      </trkpt>
      <trkpt lat="45.35511" lon="5.89144">
        <ele>1758.45703125</ele>
        <time>2017-01-27T11:07:00Z</time>
      </trkpt>
      <trkpt lat="45.35519" lon="5.89147">
        <ele>1761.45703125</ele>
        <time>2017-01-27T11:07:06Z</time>
      </trkpt>
      <trkpt lat="45.35525" lon="5.89153">
        <ele>1762.45703125</ele>
        <time>2017-01-27T11:07:11Z</time>
      </trkpt>
      <trkpt lat="45.35532" lon="5.8916">
        <ele>1765.45703125</ele>
        <time>2017-01-27T11:07:17Z</time>
      </trkpt>
      <trkpt lat="45.35538" lon="5.89167">
        <ele>1763.45703125</ele>
        <time>2017-01-27T11:07:25Z</time>
      </trkpt>
      <trkpt lat="45.35545" lon="5.89172">
        <ele>1763.45703125</ele>
        <time>2017-01-27T11:07:33Z</time>
      </trkpt>
      <trkpt lat="45.3555" lon="5.8918">
        <ele>1764.45703125</ele>
        <time>2017-01-27T11:07:41Z</time>
      </trkpt>
      <trkpt lat="45.35556" lon="5.89186">
        <ele>1767.45703125</ele>
        <time>2017-01-27T11:07:47Z</time>
      </trkpt>
      <trkpt lat="45.35562" lon="5.89192">
        <ele>1769.45703125</ele>
        <time>2017-01-27T11:07:54Z</time>
      </trkpt>
      <trkpt lat="45.35567" lon="5.892">
        <ele>1770.45703125</ele>
        <time>2017-01-27T11:08:01Z</time>
      </trkpt>
      <trkpt lat="45.35572" lon="5.89207">
        <ele>1771.45703125</ele>
        <time>2017-01-27T11:08:08Z</time>
      </trkpt>
      <trkpt lat="45.35578" lon="5.89215">
        <ele>1771.45703125</ele>
        <time>2017-01-27T11:08:18Z</time>
      </trkpt>
      <trkpt lat="45.35581" lon="5.89225">
        <ele>1771.45703125</ele>
        <time>2017-01-27T11:08:24Z</time>
      </trkpt>
      <trkpt lat="45.35586" lon="5.89233">
        <ele>1776.45703125</ele>
        <time>2017-01-27T11:08:34Z</time>
      </trkpt>
      <trkpt lat="45.3559" lon="5.89242">
        <ele>1775.45703125</ele>
        <time>2017-01-27T11:08:42Z</time>
      </trkpt>
      <trkpt lat="45.35594" lon="5.8925">
        <ele>1779.45703125</ele>
        <time>2017-01-27T11:08:50Z</time>
      </trkpt>
      <trkpt lat="45.35599" lon="5.8926">
        <ele>1778.45703125</ele>
        <time>2017-01-27T11:09:04Z</time>
      </trkpt>
      <trkpt lat="45.35606" lon="5.89266">
        <ele>1782.45703125</ele>
        <time>2017-01-27T11:09:10Z</time>
      </trkpt>
      <trkpt lat="45.35609" lon="5.89276">
        <ele>1782.45703125</ele>
        <time>2017-01-27T11:09:18Z</time>
      </trkpt>
      <trkpt lat="45.35614" lon="5.89285">
        <ele>1783.45703125</ele>
        <time>2017-01-27T11:09:28Z</time>
      </trkpt>
      <trkpt lat="45.35618" lon="5.89295">
        <ele>1783.45703125</ele>
        <time>2017-01-27T11:09:36Z</time>
      </trkpt>
      <trkpt lat="45.35624" lon="5.893">
        <ele>1786.45703125</ele>
        <time>2017-01-27T11:09:43Z</time>
      </trkpt>
      <trkpt lat="45.35631" lon="5.89306">
        <ele>1788.45703125</ele>
        <time>2017-01-27T11:09:51Z</time>
      </trkpt>
      <trkpt lat="45.35636" lon="5.89315">
        <ele>1792.45703125</ele>
        <time>2017-01-27T11:10:00Z</time>
      </trkpt>
      <trkpt lat="45.35641" lon="5.89323">
        <ele>1791.45703125</ele>
        <time>2017-01-27T11:10:06Z</time>
      </trkpt>
      <trkpt lat="45.35645" lon="5.89333">
        <ele>1792.45703125</ele>
        <time>2017-01-27T11:10:15Z</time>
      </trkpt>
      <trkpt lat="45.35651" lon="5.89341">
        <ele>1793.45703125</ele>
        <time>2017-01-27T11:10:24Z</time>
      </trkpt>
      <trkpt lat="45.35656" lon="5.89351">
        <ele>1793.45703125</ele>
        <time>2017-01-27T11:10:34Z</time>
      </trkpt>
      <trkpt lat="45.35661" lon="5.89359">
        <ele>1795.45703125</ele>
        <time>2017-01-27T11:10:44Z</time>
      </trkpt>
      <trkpt lat="45.35669" lon="5.89362">
        <ele>1794.45703125</ele>
        <time>2017-01-27T11:10:51Z</time>
      </trkpt>
      <trkpt lat="45.35674" lon="5.89369">
        <ele>1796.45703125</ele>
        <time>2017-01-27T11:10:58Z</time>
      </trkpt>
      <trkpt lat="45.35678" lon="5.89378">
        <ele>1797.45703125</ele>
        <time>2017-01-27T11:11:06Z</time>
      </trkpt>
      <trkpt lat="45.35686" lon="5.89382">
        <ele>1797.45703125</ele>
        <time>2017-01-27T11:11:12Z</time>
      </trkpt>
      <trkpt lat="45.35688" lon="5.89395">
        <ele>1797.45703125</ele>
        <time>2017-01-27T11:11:20Z</time>
      </trkpt>
      <trkpt lat="45.35693" lon="5.89403">
        <ele>1799.45703125</ele>
        <time>2017-01-27T11:11:29Z</time>
      </trkpt>
      <trkpt lat="45.35701" lon="5.89404">
        <ele>1798.45703125</ele>
        <time>2017-01-27T11:13:08Z</time>
      </trkpt>
      <trkpt lat="45.35705" lon="5.89413">
        <ele>1797.45703125</ele>
        <time>2017-01-27T11:13:14Z</time>
      </trkpt>
      <trkpt lat="45.3571" lon="5.89421">
        <ele>1796.45703125</ele>
        <time>2017-01-27T11:13:23Z</time>
      </trkpt>
      <trkpt lat="45.35716" lon="5.89428">
        <ele>1796.45703125</ele>
        <time>2017-01-27T11:13:30Z</time>
      </trkpt>
      <trkpt lat="45.3572" lon="5.89437">
        <ele>1795.45703125</ele>
        <time>2017-01-27T11:13:37Z</time>
      </trkpt>
      <trkpt lat="45.35722" lon="5.89447">
        <ele>1798.4580078125</ele>
        <time>2017-01-27T11:13:42Z</time>
      </trkpt>
      <trkpt lat="45.35726" lon="5.89456">
        <ele>1802.4580078125</ele>
        <time>2017-01-27T11:13:48Z</time>
      </trkpt>
      <trkpt lat="45.35733" lon="5.8946">
        <ele>1802.4580078125</ele>
        <time>2017-01-27T11:13:54Z</time>
      </trkpt>
      <trkpt lat="45.3574" lon="5.89464">
        <ele>1805.4580078125</ele>
        <time>2017-01-27T11:14:00Z</time>
      </trkpt>
      <trkpt lat="45.35738" lon="5.89475">
        <ele>1810.4580078125</ele>
        <time>2017-01-27T11:14:20Z</time>
      </trkpt>
      <trkpt lat="45.3574" lon="5.89485">
        <ele>1807.4580078125</ele>
        <time>2017-01-27T11:14:29Z</time>
      </trkpt>
      <trkpt lat="45.3574" lon="5.89495">
        <ele>1806.4580078125</ele>
        <time>2017-01-27T11:14:37Z</time>
      </trkpt>
      <trkpt lat="45.35742" lon="5.89506">
        <ele>1812.4580078125</ele>
        <time>2017-01-27T11:15:09Z</time>
      </trkpt>
      <trkpt lat="45.35745" lon="5.89518">
        <ele>1813.4580078125</ele>
        <time>2017-01-27T11:15:19Z</time>
      </trkpt>
      <trkpt lat="45.35746" lon="5.8953">
        <ele>1814.4580078125</ele>
        <time>2017-01-27T11:15:26Z</time>
      </trkpt>
      <trkpt lat="45.35749" lon="5.8954">
        <ele>1814.4580078125</ele>
        <time>2017-01-27T11:15:39Z</time>
      </trkpt>
      <trkpt lat="45.35752" lon="5.8955">
        <ele>1816.4580078125</ele>
        <time>2017-01-27T11:15:46Z</time>
      </trkpt>
      <trkpt lat="45.35758" lon="5.89556">
        <ele>1816.4580078125</ele>
        <time>2017-01-27T11:15:54Z</time>
      </trkpt>
      <trkpt lat="45.35764" lon="5.89564">
        <ele>1817.4580078125</ele>
        <time>2017-01-27T11:16:04Z</time>
      </trkpt>
      <trkpt lat="45.35768" lon="5.89573">
        <ele>1819.4580078125</ele>
        <time>2017-01-27T11:16:12Z</time>
      </trkpt>
      <trkpt lat="45.35772" lon="5.89582">
        <ele>1823.4580078125</ele>
        <time>2017-01-27T11:16:22Z</time>
      </trkpt>
      <trkpt lat="45.35775" lon="5.89592">
        <ele>1823.4580078125</ele>
        <time>2017-01-27T11:16:30Z</time>
      </trkpt>
      <trkpt lat="45.35778" lon="5.89603">
        <ele>1825.4580078125</ele>
        <time>2017-01-27T11:16:41Z</time>
      </trkpt>
      <trkpt lat="45.35781" lon="5.89613">
        <ele>1826.4580078125</ele>
        <time>2017-01-27T11:16:50Z</time>
      </trkpt>
      <trkpt lat="45.35786" lon="5.89621">
        <ele>1833.4580078125</ele>
        <time>2017-01-27T11:17:04Z</time>
      </trkpt>
      <trkpt lat="45.35789" lon="5.89631">
        <ele>1832.4580078125</ele>
        <time>2017-01-27T11:17:15Z</time>
      </trkpt>
      <trkpt lat="45.35792" lon="5.89642">
        <ele>1836.4580078125</ele>
        <time>2017-01-27T11:17:24Z</time>
      </trkpt>
      <trkpt lat="45.35795" lon="5.89652">
        <ele>1835.4580078125</ele>
        <time>2017-01-27T11:17:31Z</time>
      </trkpt>
      <trkpt lat="45.35801" lon="5.89662">
        <ele>1836.4580078125</ele>
        <time>2017-01-27T11:17:40Z</time>
      </trkpt>
      <trkpt lat="45.35805" lon="5.8967">
        <ele>1835.4580078125</ele>
        <time>2017-01-27T11:17:48Z</time>
      </trkpt>
      <trkpt lat="45.35811" lon="5.89678">
        <ele>1835.4580078125</ele>
        <time>2017-01-27T11:17:53Z</time>
      </trkpt>
      <trkpt lat="45.35819" lon="5.89676">
        <ele>1832.4580078125</ele>
        <time>2017-01-27T11:18:12Z</time>
      </trkpt>
      <trkpt lat="45.35826" lon="5.89683">
        <ele>1829.4580078125</ele>
        <time>2017-01-27T11:18:21Z</time>
      </trkpt>
      <trkpt lat="45.35819" lon="5.89688">
        <ele>1835.4580078125</ele>
        <time>2017-01-27T11:18:53Z</time>
      </trkpt>
      <trkpt lat="45.35812" lon="5.89691">
        <ele>1838.4580078125</ele>
        <time>2017-01-27T11:21:23Z</time>
      </trkpt>
      <trkpt lat="45.35811" lon="5.89701">
        <ele>1836.4580078125</ele>
        <time>2017-01-27T11:21:28Z</time>
      </trkpt>
      <trkpt lat="45.35808" lon="5.89713">
        <ele>1834.4580078125</ele>
        <time>2017-01-27T11:21:33Z</time>
      </trkpt>
      <trkpt lat="45.35807" lon="5.89723">
        <ele>1832.4580078125</ele>
        <time>2017-01-27T11:21:38Z</time>
      </trkpt>
      <trkpt lat="45.35803" lon="5.89732">
        <ele>1828.4580078125</ele>
        <time>2017-01-27T11:21:45Z</time>
      </trkpt>
      <trkpt lat="45.35805" lon="5.89743">
        <ele>1822.4580078125</ele>
        <time>2017-01-27T11:21:53Z</time>
      </trkpt>
      <trkpt lat="45.35813" lon="5.89743">
        <ele>1822.4580078125</ele>
        <time>2017-01-27T11:22:20Z</time>
      </trkpt>
      <trkpt lat="45.35818" lon="5.89751">
        <ele>1819.4580078125</ele>
        <time>2017-01-27T11:22:27Z</time>
      </trkpt>
      <trkpt lat="45.35811" lon="5.89755">
        <ele>1811.4580078125</ele>
        <time>2017-01-27T11:22:53Z</time>
      </trkpt>
      <trkpt lat="45.3581" lon="5.89766">
        <ele>1807.4580078125</ele>
        <time>2017-01-27T11:23:38Z</time>
      </trkpt>
      <trkpt lat="45.35817" lon="5.89765">
        <ele>1801.4580078125</ele>
        <time>2017-01-27T11:24:11Z</time>
      </trkpt>
      <trkpt lat="45.3582" lon="5.89774">
        <ele>1798.4580078125</ele>
        <time>2017-01-27T11:25:01Z</time>
      </trkpt>
      <trkpt lat="45.35823" lon="5.89783">
        <ele>1792.4580078125</ele>
        <time>2017-01-27T11:26:22Z</time>
      </trkpt>
      <trkpt lat="45.35816" lon="5.8979">
        <ele>1777.4580078125</ele>
        <time>2017-01-27T11:28:45Z</time>
      </trkpt>
      <trkpt lat="45.35816" lon="5.89801">
        <ele>1777.4580078125</ele>
        <time>2017-01-27T11:29:17Z</time>
      </trkpt>
      <trkpt lat="45.35817" lon="5.89814">
        <ele>1774.4580078125</ele>
        <time>2017-01-27T11:29:41Z</time>
      </trkpt>
      <trkpt lat="45.35814" lon="5.89825">
        <ele>1774.4580078125</ele>
        <time>2017-01-27T11:29:52Z</time>
      </trkpt>
      <trkpt lat="45.35818" lon="5.89838">
        <ele>1756.4580078125</ele>
        <time>2017-01-27T11:30:33Z</time>
      </trkpt>
      <trkpt lat="45.35811" lon="5.89848">
        <ele>1755.4580078125</ele>
        <time>2017-01-27T11:30:37Z</time>
      </trkpt>
      <trkpt lat="45.35817" lon="5.89855">
        <ele>1748.4580078125</ele>
        <time>2017-01-27T11:30:45Z</time>
      </trkpt>
      <trkpt lat="45.35813" lon="5.89865">
        <ele>1746.4580078125</ele>
        <time>2017-01-27T11:30:51Z</time>
      </trkpt>
      <trkpt lat="45.35817" lon="5.89882">
        <ele>1743.4580078125</ele>
        <time>2017-01-27T11:31:04Z</time>
      </trkpt>
      <trkpt lat="45.35828" lon="5.89877">
        <ele>1737.4580078125</ele>
        <time>2017-01-27T11:31:16Z</time>
      </trkpt>
      <trkpt lat="45.35835" lon="5.89886">
        <ele>1731.4580078125</ele>
        <time>2017-01-27T11:31:22Z</time>
      </trkpt>
      <trkpt lat="45.35825" lon="5.89903">
        <ele>1725.4580078125</ele>
        <time>2017-01-27T11:31:29Z</time>
      </trkpt>
      <trkpt lat="45.35822" lon="5.89914">
        <ele>1714.4580078125</ele>
        <time>2017-01-27T11:31:47Z</time>
      </trkpt>
      <trkpt lat="45.35829" lon="5.8992">
        <ele>1707.4580078125</ele>
        <time>2017-01-27T11:31:58Z</time>
      </trkpt>
      <trkpt lat="45.3583" lon="5.8993">
        <ele>1703.4580078125</ele>
        <time>2017-01-27T11:32:04Z</time>
      </trkpt>
      <trkpt lat="45.35835" lon="5.89936">
        <ele>1692.4580078125</ele>
        <time>2017-01-27T11:32:26Z</time>
      </trkpt>
      <trkpt lat="45.35833" lon="5.89946">
        <ele>1687.4580078125</ele>
        <time>2017-01-27T11:32:41Z</time>
      </trkpt>
      <trkpt lat="45.35831" lon="5.89957">
        <ele>1684.4580078125</ele>
        <time>2017-01-27T11:33:05Z</time>
      </trkpt>
      <trkpt lat="45.35831" lon="5.89968">
        <ele>1679.4580078125</ele>
        <time>2017-01-27T11:33:15Z</time>
      </trkpt>
      <trkpt lat="45.35837" lon="5.89988">
        <ele>1661.4580078125</ele>
        <time>2017-01-27T11:33:36Z</time>
      </trkpt>
      <trkpt lat="45.35836" lon="5.89998">
        <ele>1660.4580078125</ele>
        <time>2017-01-27T11:33:44Z</time>
      </trkpt>
      <trkpt lat="45.35833" lon="5.90009">
        <ele>1655.4580078125</ele>
        <time>2017-01-27T11:33:53Z</time>
      </trkpt>
      <trkpt lat="45.35816" lon="5.90026">
        <ele>1651.4580078125</ele>
        <time>2017-01-27T11:33:59Z</time>
      </trkpt>
      <trkpt lat="45.35823" lon="5.90015">
        <ele>1642.4580078125</ele>
        <time>2017-01-27T11:34:07Z</time>
      </trkpt>
      <trkpt lat="45.3583" lon="5.90012">
        <ele>1640.4580078125</ele>
        <time>2017-01-27T11:34:11Z</time>
      </trkpt>
      <trkpt lat="45.35827" lon="5.90021">
        <ele>1639.4580078125</ele>
        <time>2017-01-27T11:34:43Z</time>
      </trkpt>
      <trkpt lat="45.35826" lon="5.90032">
        <ele>1643.4580078125</ele>
        <time>2017-01-27T11:35:03Z</time>
      </trkpt>
      <trkpt lat="45.35831" lon="5.90025">
        <ele>1636.4580078125</ele>
        <time>2017-01-27T11:35:07Z</time>
      </trkpt>
      <trkpt lat="45.35826" lon="5.90037">
        <ele>1632.4580078125</ele>
        <time>2017-01-27T11:35:20Z</time>
      </trkpt>
      <trkpt lat="45.3582" lon="5.90043">
        <ele>1627.4580078125</ele>
        <time>2017-01-27T11:35:26Z</time>
      </trkpt>
      <trkpt lat="45.35826" lon="5.9005">
        <ele>1621.458984375</ele>
        <time>2017-01-27T11:36:15Z</time>
      </trkpt>
      <trkpt lat="45.35822" lon="5.90059">
        <ele>1618.458984375</ele>
        <time>2017-01-27T11:36:29Z</time>
      </trkpt>
      <trkpt lat="45.35822" lon="5.9007">
        <ele>1612.458984375</ele>
        <time>2017-01-27T11:38:14Z</time>
      </trkpt>
      <trkpt lat="45.35816" lon="5.9009">
        <ele>1602.458984375</ele>
        <time>2017-01-27T11:38:36Z</time>
      </trkpt>
      <trkpt lat="45.3581" lon="5.90097">
        <ele>1599.458984375</ele>
        <time>2017-01-27T11:39:04Z</time>
      </trkpt>
      <trkpt lat="45.35815" lon="5.90107">
        <ele>1595.458984375</ele>
        <time>2017-01-27T11:39:34Z</time>
      </trkpt>
      <trkpt lat="45.3582" lon="5.90119">
        <ele>1593.458984375</ele>
        <time>2017-01-27T11:40:09Z</time>
      </trkpt>
      <trkpt lat="45.35821" lon="5.9013">
        <ele>1591.458984375</ele>
        <time>2017-01-27T11:40:31Z</time>
      </trkpt>
      <trkpt lat="45.35826" lon="5.90139">
        <ele>1587.458984375</ele>
        <time>2017-01-27T11:40:43Z</time>
      </trkpt>
      <trkpt lat="45.3583" lon="5.90148">
        <ele>1588.458984375</ele>
        <time>2017-01-27T11:41:01Z</time>
      </trkpt>
      <trkpt lat="45.35841" lon="5.90161">
        <ele>1579.458984375</ele>
        <time>2017-01-27T11:41:12Z</time>
      </trkpt>
      <trkpt lat="45.35847" lon="5.90167">
        <ele>1578.458984375</ele>
        <time>2017-01-27T11:41:28Z</time>
      </trkpt>
      <trkpt lat="45.35854" lon="5.90178">
        <ele>1575.458984375</ele>
        <time>2017-01-27T11:41:39Z</time>
      </trkpt>
      <trkpt lat="45.35865" lon="5.90198">
        <ele>1565.458984375</ele>
        <time>2017-01-27T11:41:46Z</time>
      </trkpt>
      <trkpt lat="45.35871" lon="5.9021">
        <ele>1565.458984375</ele>
        <time>2017-01-27T11:41:54Z</time>
      </trkpt>
      <trkpt lat="45.35869" lon="5.9023">
        <ele>1561.458984375</ele>
        <time>2017-01-27T11:42:09Z</time>
      </trkpt>
      <trkpt lat="45.35872" lon="5.90242">
        <ele>1551.458984375</ele>
        <time>2017-01-27T11:42:17Z</time>
      </trkpt>
      <trkpt lat="45.35867" lon="5.90251">
        <ele>1552.458984375</ele>
        <time>2017-01-27T11:42:24Z</time>
      </trkpt>
      <trkpt lat="45.35861" lon="5.90257">
        <ele>1554.458984375</ele>
        <time>2017-01-27T11:42:28Z</time>
      </trkpt>
      <trkpt lat="45.35855" lon="5.90263">
        <ele>1558.458984375</ele>
        <time>2017-01-27T11:42:32Z</time>
      </trkpt>
      <trkpt lat="45.35855" lon="5.90275">
        <ele>1550.458984375</ele>
        <time>2017-01-27T11:42:59Z</time>
      </trkpt>
      <trkpt lat="45.35861" lon="5.90285">
        <ele>1544.458984375</ele>
        <time>2017-01-27T11:43:15Z</time>
      </trkpt>
      <trkpt lat="45.35849" lon="5.90303">
        <ele>1544.458984375</ele>
        <time>2017-01-27T11:43:19Z</time>
      </trkpt>
      <trkpt lat="45.35853" lon="5.90295">
        <ele>1535.458984375</ele>
        <time>2017-01-27T11:43:30Z</time>
      </trkpt>
      <trkpt lat="45.35849" lon="5.90305">
        <ele>1533.458984375</ele>
        <time>2017-01-27T11:43:46Z</time>
      </trkpt>
      <trkpt lat="45.35853" lon="5.90316">
        <ele>1524.458984375</ele>
        <time>2017-01-27T11:44:01Z</time>
      </trkpt>
      <trkpt lat="45.35853" lon="5.9033">
        <ele>1522.458984375</ele>
        <time>2017-01-27T11:44:03Z</time>
      </trkpt>
      <trkpt lat="45.35846" lon="5.90338">
        <ele>1518.458984375</ele>
        <time>2017-01-27T11:44:14Z</time>
      </trkpt>
      <trkpt lat="45.35842" lon="5.9035">
        <ele>1510.458984375</ele>
        <time>2017-01-27T11:44:31Z</time>
      </trkpt>
      <trkpt lat="45.35846" lon="5.90359">
        <ele>1506.458984375</ele>
        <time>2017-01-27T11:44:39Z</time>
      </trkpt>
      <trkpt lat="45.35847" lon="5.90371">
        <ele>1510.458984375</ele>
        <time>2017-01-27T11:45:03Z</time>
      </trkpt>
      <trkpt lat="45.35845" lon="5.90381">
        <ele>1509.458984375</ele>
        <time>2017-01-27T11:45:09Z</time>
      </trkpt>
      <trkpt lat="45.35847" lon="5.90393">
        <ele>1506.458984375</ele>
        <time>2017-01-27T11:45:16Z</time>
      </trkpt>
      <trkpt lat="45.35837" lon="5.90395">
        <ele>1492.458984375</ele>
        <time>2017-01-27T11:45:52Z</time>
      </trkpt>
      <trkpt lat="45.35837" lon="5.90384">
        <ele>1492.458984375</ele>
        <time>2017-01-27T11:45:58Z</time>
      </trkpt>
      <trkpt lat="45.35829" lon="5.90385">
        <ele>1490.458984375</ele>
        <time>2017-01-27T11:46:18Z</time>
      </trkpt>
      <trkpt lat="45.3582" lon="5.90384">
        <ele>1486.458984375</ele>
        <time>2017-01-27T11:46:23Z</time>
      </trkpt>
      <trkpt lat="45.35815" lon="5.9039">
        <ele>1482.458984375</ele>
        <time>2017-01-27T11:46:40Z</time>
      </trkpt>
      <trkpt lat="45.35805" lon="5.90393">
        <ele>1480.458984375</ele>
        <time>2017-01-27T11:46:49Z</time>
      </trkpt>
      <trkpt lat="45.35798" lon="5.90397">
        <ele>1481.458984375</ele>
        <time>2017-01-27T11:46:54Z</time>
      </trkpt>
      <trkpt lat="45.35781" lon="5.90406">
        <ele>1474.458984375</ele>
        <time>2017-01-27T11:47:02Z</time>
      </trkpt>
      <trkpt lat="45.35771" lon="5.90414">
        <ele>1475.458984375</ele>
        <time>2017-01-27T11:47:15Z</time>
      </trkpt>
      <trkpt lat="45.35753" lon="5.90414">
        <ele>1463.458984375</ele>
        <time>2017-01-27T11:47:25Z</time>
      </trkpt>
      <trkpt lat="45.35747" lon="5.90435">
        <ele>1456.458984375</ele>
        <time>2017-01-27T11:47:50Z</time>
      </trkpt>
      <trkpt lat="45.35739" lon="5.90452">
        <ele>1447.458984375</ele>
        <time>2017-01-27T11:48:18Z</time>
      </trkpt>
      <trkpt lat="45.35741" lon="5.90464">
        <ele>1438.458984375</ele>
        <time>2017-01-27T11:48:44Z</time>
      </trkpt>
      <trkpt lat="45.35738" lon="5.90482">
        <ele>1435.458984375</ele>
        <time>2017-01-27T11:48:58Z</time>
      </trkpt>
      <trkpt lat="45.3573" lon="5.90483">
        <ele>1431.458984375</ele>
        <time>2017-01-27T11:49:25Z</time>
      </trkpt>
      <trkpt lat="45.35726" lon="5.90495">
        <ele>1419.458984375</ele>
        <time>2017-01-27T11:50:26Z</time>
      </trkpt>
      <trkpt lat="45.35718" lon="5.90501">
        <ele>1416.458984375</ele>
        <time>2017-01-27T11:50:37Z</time>
      </trkpt>
      <trkpt lat="45.35709" lon="5.90505">
        <ele>1416.458984375</ele>
        <time>2017-01-27T11:50:46Z</time>
      </trkpt>
      <trkpt lat="45.35702" lon="5.90513">
        <ele>1412.458984375</ele>
        <time>2017-01-27T11:50:59Z</time>
      </trkpt>
      <trkpt lat="45.35685" lon="5.90517">
        <ele>1407.458984375</ele>
        <time>2017-01-27T11:51:05Z</time>
      </trkpt>
      <trkpt lat="45.3568" lon="5.9051">
        <ele>1401.458984375</ele>
        <time>2017-01-27T11:51:15Z</time>
      </trkpt>
      <trkpt lat="45.35687" lon="5.90513">
        <ele>1396.458984375</ele>
        <time>2017-01-27T11:51:30Z</time>
      </trkpt>
      <trkpt lat="45.3568" lon="5.90529">
        <ele>1392.458984375</ele>
        <time>2017-01-27T11:51:59Z</time>
      </trkpt>
      <trkpt lat="45.35667" lon="5.90535">
        <ele>1389.458984375</ele>
        <time>2017-01-27T11:52:15Z</time>
      </trkpt>
      <trkpt lat="45.3566" lon="5.90539">
        <ele>1392.458984375</ele>
        <time>2017-01-27T11:52:25Z</time>
      </trkpt>
      <trkpt lat="45.35654" lon="5.90532">
        <ele>1390.458984375</ele>
        <time>2017-01-27T11:52:37Z</time>
      </trkpt>
      <trkpt lat="45.35655" lon="5.90544">
        <ele>1382.458984375</ele>
        <time>2017-01-27T11:52:53Z</time>
      </trkpt>
      <trkpt lat="45.35658" lon="5.90562">
        <ele>1377.458984375</ele>
        <time>2017-01-27T11:52:58Z</time>
      </trkpt>
      <trkpt lat="45.35685" lon="5.90588">
        <ele>1379.458984375</ele>
        <time>2017-01-27T11:53:03Z</time>
      </trkpt>
      <trkpt lat="45.35694" lon="5.90596">
        <ele>1379.458984375</ele>
        <time>2017-01-27T11:53:04Z</time>
      </trkpt>
      <trkpt lat="45.35714" lon="5.90647">
        <ele>1374.458984375</ele>
        <time>2017-01-27T11:53:09Z</time>
      </trkpt>
      <trkpt lat="45.35721" lon="5.90654">
        <ele>1372.458984375</ele>
        <time>2017-01-27T11:53:12Z</time>
      </trkpt>
      <trkpt lat="45.35728" lon="5.90664">
        <ele>1365.458984375</ele>
        <time>2017-01-27T11:53:14Z</time>
      </trkpt>
      <trkpt lat="45.35734" lon="5.90692">
        <ele>1356.458984375</ele>
        <time>2017-01-27T11:53:19Z</time>
      </trkpt>
      <trkpt lat="45.35741" lon="5.90717">
        <ele>1350.458984375</ele>
        <time>2017-01-27T11:53:24Z</time>
      </trkpt>
      <trkpt lat="45.3575" lon="5.90717">
        <ele>1347.458984375</ele>
        <time>2017-01-27T11:53:29Z</time>
      </trkpt>
      <trkpt lat="45.35752" lon="5.90728">
        <ele>1344.458984375</ele>
        <time>2017-01-27T11:55:44Z</time>
      </trkpt>
      <trkpt lat="45.3577" lon="5.90746">
        <ele>1343.458984375</ele>
        <time>2017-01-27T11:55:50Z</time>
      </trkpt>
      <trkpt lat="45.35782" lon="5.90761">
        <ele>1342.458984375</ele>
        <time>2017-01-27T11:55:51Z</time>
      </trkpt>
      <trkpt lat="45.35792" lon="5.90763">
        <ele>1340.458984375</ele>
        <time>2017-01-27T11:55:53Z</time>
      </trkpt>
      <trkpt lat="45.35808" lon="5.90772">
        <ele>1333.458984375</ele>
        <time>2017-01-27T11:55:58Z</time>
      </trkpt>
      <trkpt lat="45.35803" lon="5.9078">
        <ele>1326.458984375</ele>
        <time>2017-01-27T11:56:04Z</time>
      </trkpt>
      <trkpt lat="45.35801" lon="5.90793">
        <ele>1322.458984375</ele>
        <time>2017-01-27T11:56:07Z</time>
      </trkpt>
      <trkpt lat="45.35795" lon="5.90827">
        <ele>1314.458984375</ele>
        <time>2017-01-27T11:56:13Z</time>
      </trkpt>
      <trkpt lat="45.35793" lon="5.90861">
        <ele>1307.4599609375</ele>
        <time>2017-01-27T11:56:20Z</time>
      </trkpt>
      <trkpt lat="45.358" lon="5.90881">
        <ele>1300.4599609375</ele>
        <time>2017-01-27T11:56:25Z</time>
      </trkpt>
      <trkpt lat="45.35802" lon="5.90894">
        <ele>1299.4599609375</ele>
        <time>2017-01-27T11:56:28Z</time>
      </trkpt>
      <trkpt lat="45.35775" lon="5.90888">
        <ele>1293.4599609375</ele>
        <time>2017-01-27T11:56:36Z</time>
      </trkpt>
      <trkpt lat="45.35757" lon="5.90884">
        <ele>1290.458984375</ele>
        <time>2017-01-27T11:56:41Z</time>
      </trkpt>
      <trkpt lat="45.3574" lon="5.90875">
        <ele>1282.458984375</ele>
        <time>2017-01-27T11:56:52Z</time>
      </trkpt>
      <trkpt lat="45.3571" lon="5.90876">
        <ele>1279.458984375</ele>
        <time>2017-01-27T11:56:57Z</time>
      </trkpt>
      <trkpt lat="45.35693" lon="5.90894">
        <ele>1264.458984375</ele>
        <time>2017-01-27T11:57:22Z</time>
      </trkpt>
      <trkpt lat="45.35692" lon="5.90917">
        <ele>1258.458984375</ele>
        <time>2017-01-27T11:57:26Z</time>
      </trkpt>
      <trkpt lat="45.35692" lon="5.9095">
        <ele>1249.458984375</ele>
        <time>2017-01-27T11:57:31Z</time>
      </trkpt>
      <trkpt lat="45.35673" lon="5.90988">
        <ele>1242.458984375</ele>
        <time>2017-01-27T11:57:37Z</time>
      </trkpt>
      <trkpt lat="45.35682" lon="5.91028">
        <ele>1239.4599609375</ele>
        <time>2017-01-27T11:57:42Z</time>
      </trkpt>
      <trkpt lat="45.35693" lon="5.91067">
        <ele>1232.4599609375</ele>
        <time>2017-01-27T11:57:47Z</time>
      </trkpt>
      <trkpt lat="45.35697" lon="5.91077">
        <ele>1230.4599609375</ele>
        <time>2017-01-27T11:57:48Z</time>
      </trkpt>
      <trkpt lat="45.35713" lon="5.91122">
        <ele>1221.4599609375</ele>
        <time>2017-01-27T11:57:54Z</time>
      </trkpt>
      <trkpt lat="45.35715" lon="5.9115">
        <ele>1216.4599609375</ele>
        <time>2017-01-27T11:57:57Z</time>
      </trkpt>
      <trkpt lat="45.35724" lon="5.91195">
        <ele>1204.4599609375</ele>
        <time>2017-01-27T11:58:02Z</time>
      </trkpt>
      <trkpt lat="45.35723" lon="5.91237">
        <ele>1193.4599609375</ele>
        <time>2017-01-27T11:58:07Z</time>
      </trkpt>
      <trkpt lat="45.35724" lon="5.91279">
        <ele>1181.4599609375</ele>
        <time>2017-01-27T11:58:13Z</time>
      </trkpt>
      <trkpt lat="45.35724" lon="5.91294">
        <ele>1178.4599609375</ele>
        <time>2017-01-27T11:58:15Z</time>
      </trkpt>
      <trkpt lat="45.35726" lon="5.91343">
        <ele>1166.4599609375</ele>
        <time>2017-01-27T11:58:21Z</time>
      </trkpt>
      <trkpt lat="45.35714" lon="5.91391">
        <ele>1160.4599609375</ele>
        <time>2017-01-27T11:58:27Z</time>
      </trkpt>
      <trkpt lat="45.35716" lon="5.91413">
        <ele>1152.4599609375</ele>
        <time>2017-01-27T11:58:32Z</time>
      </trkpt>
      <trkpt lat="45.357" lon="5.9145">
        <ele>1144.4599609375</ele>
        <time>2017-01-27T11:58:38Z</time>
      </trkpt>
      <trkpt lat="45.35692" lon="5.91489">
        <ele>1138.4599609375</ele>
        <time>2017-01-27T11:58:44Z</time>
      </trkpt>
      <trkpt lat="45.35677" lon="5.91532">
        <ele>1127.4599609375</ele>
        <time>2017-01-27T11:58:50Z</time>
      </trkpt>
      <trkpt lat="45.35658" lon="5.91564">
        <ele>1117.4599609375</ele>
        <time>2017-01-27T11:58:56Z</time>
      </trkpt>
      <trkpt lat="45.35651" lon="5.91586">
        <ele>1111.4599609375</ele>
        <time>2017-01-27T11:59:01Z</time>
      </trkpt>
      <trkpt lat="45.35647" lon="5.91595">
        <ele>1109.4599609375</ele>
        <time>2017-01-27T11:59:03Z</time>
      </trkpt>
      <trkpt lat="45.35643" lon="5.91619">
        <ele>1107.4599609375</ele>
        <time>2017-01-27T11:59:12Z</time>
      </trkpt>
      <trkpt lat="45.35622" lon="5.91645">
        <ele>1103.4599609375</ele>
        <time>2017-01-27T11:59:17Z</time>
      </trkpt>
      <trkpt lat="45.35622" lon="5.91657">
        <ele>1097.4599609375</ele>
        <time>2017-01-27T11:59:24Z</time>
      </trkpt>
      <trkpt lat="45.35617" lon="5.91679">
        <ele>1095.4599609375</ele>
        <time>2017-01-27T11:59:29Z</time>
      </trkpt>
      <trkpt lat="45.35597" lon="5.9171">
        <ele>1091.4599609375</ele>
        <time>2017-01-27T11:59:35Z</time>
      </trkpt>
      <trkpt lat="45.35607" lon="5.91738">
        <ele>1087.4599609375</ele>
        <time>2017-01-27T11:59:40Z</time>
      </trkpt>
      <trkpt lat="45.35648" lon="5.91777">
        <ele>1082.4599609375</ele>
        <time>2017-01-27T11:59:45Z</time>
      </trkpt>
      <trkpt lat="45.35643" lon="5.9181">
        <ele>1078.4599609375</ele>
        <time>2017-01-27T11:59:47Z</time>
      </trkpt>
      <trkpt lat="45.35634" lon="5.91827">
        <ele>1078.4599609375</ele>
        <time>2017-01-27T11:59:48Z</time>
      </trkpt>
      <trkpt lat="45.35602" lon="5.91866">
        <ele>1076.4599609375</ele>
        <time>2017-01-27T11:59:54Z</time>
      </trkpt>
      <trkpt lat="45.35585" lon="5.91878">
        <ele>1074.4599609375</ele>
        <time>2017-01-27T11:59:59Z</time>
      </trkpt>
      <trkpt lat="45.35587" lon="5.91888">
        <ele>1069.4599609375</ele>
        <time>2017-01-27T12:00:40Z</time>
      </trkpt>
      <trkpt lat="45.35591" lon="5.91898">
        <ele>1067.4599609375</ele>
        <time>2017-01-27T12:00:46Z</time>
      </trkpt>
      <trkpt lat="45.35595" lon="5.91907">
        <ele>1068.4599609375</ele>
        <time>2017-01-27T12:00:54Z</time>
      </trkpt>
    </trkseg>
  </trk>
</gpx>